<?xml version="1.0" encoding="UTF-8"?>
<gpx xmlns="http://www.topografix.com/GPX/1/1" xmlns:ns2="http://www.garmin.com/xmlschemas/GpxExtensions/v3" xmlns:ns3="http://www.garmin.com/xmlschemas/TrackPointExtension/v1" xmlns:xsi="http://www.w3.org/2001/XMLSchema-instance" xsi:schemaLocation="http://www.topografix.com/GPX/1/1 http://www.topografix.com/GPX/11.xsd" version="1.1" creator="Garmin Connect">
  <metadata>
    <name>VR - Road 16 Vestone/Fobbia/Degagna</name>
    <link href="connect.garmin.com">
      <text>Garmin Connect</text>
    </link>
    <time>2017-11-22T11:45:24Z</time>
  </metadata>
  <trk>
    <trkseg>
      <trkpt lat="45.703148217871785" lon="10.387424798682376">
        <ele>311.0</ele>
        <time>2017-11-22T11:45:24Z</time>
      </trkpt>
      <trkpt lat="45.70344694890082" lon="10.387723445892334">
        <ele>313.1806760638996</ele>
        <time>2017-11-22T11:45:24.584000Z</time>
      </trkpt>
      <trkpt lat="45.70387601852417" lon="10.3885817527771">
        <ele>314.569519877437</ele>
        <time>2017-11-22T11:45:25.766000Z</time>
      </trkpt>
      <trkpt lat="45.704283714294434" lon="10.389697551727295">
        <ele>321.0861388035981</ele>
        <time>2017-11-22T11:45:27.176000Z</time>
      </trkpt>
      <trkpt lat="45.705249309539795" lon="10.39456844329834">
        <ele>334.0</ele>
        <time>2017-11-22T11:45:32.845000Z</time>
      </trkpt>
      <trkpt lat="45.70563554763794" lon="10.39583444595337">
        <ele>319.0</ele>
        <time>2017-11-22T11:45:34.392000Z</time>
      </trkpt>
      <trkpt lat="45.7061505317688" lon="10.3985595703125">
        <ele>329.0</ele>
        <time>2017-11-22T11:45:37.553000Z</time>
      </trkpt>
      <trkpt lat="45.706322276964784" lon="10.399160385131836">
        <ele>329.0</ele>
        <time>2017-11-22T11:45:38.280000Z</time>
      </trkpt>
      <trkpt lat="45.70694446563721" lon="10.4005765914917">
        <ele>329.3172988573224</ele>
        <time>2017-11-22T11:45:40.153000Z</time>
      </trkpt>
      <trkpt lat="45.706954607740045" lon="10.400595618411899">
        <ele>329.3027633474863</ele>
        <time>2017-11-22T11:45:40.180000Z</time>
      </trkpt>
      <trkpt lat="45.706954583403125" lon="10.400595594074996">
        <ele>329.30266653133594</ele>
        <time>2017-11-22T11:45:40.180000Z</time>
      </trkpt>
      <trkpt lat="45.70695452392101" lon="10.400595534592867">
        <ele>329.3024299019266</ele>
        <time>2017-11-22T11:45:40.180000Z</time>
      </trkpt>
      <trkpt lat="45.70763119496405" lon="10.401864051818848">
        <ele>323.0</ele>
        <time>2017-11-22T11:45:41.967000Z</time>
      </trkpt>
      <trkpt lat="45.707802856341004" lon="10.402250289916992">
        <ele>322.80966190479535</ele>
        <time>2017-11-22T11:45:42.480000Z</time>
      </trkpt>
      <trkpt lat="45.70788868702948" lon="10.402421951293945">
        <ele>322.61949750444177</ele>
        <time>2017-11-22T11:45:42.716000Z</time>
      </trkpt>
      <trkpt lat="45.70881128311157" lon="10.404589176177979">
        <ele>319.0</ele>
        <time>2017-11-22T11:45:45.557000Z</time>
      </trkpt>
      <trkpt lat="45.70894002914429" lon="10.40478229522705">
        <ele>319.1719673115382</ele>
        <time>2017-11-22T11:45:45.856000Z</time>
      </trkpt>
      <trkpt lat="45.709261894226074" lon="10.405104160308838">
        <ele>319.20072325552934</ele>
        <time>2017-11-22T11:45:46.485000Z</time>
      </trkpt>
      <trkpt lat="45.709776962175965" lon="10.40529727935791">
        <ele>321.3281869241105</ele>
        <time>2017-11-22T11:45:47.339000Z</time>
      </trkpt>
      <trkpt lat="45.709819877520204" lon="10.40531873703003">
        <ele>321.50981828124833</ele>
        <time>2017-11-22T11:45:47.412000Z</time>
      </trkpt>
      <trkpt lat="45.70999153889716" lon="10.405383110046387">
        <ele>322.2188646630589</ele>
        <time>2017-11-22T11:45:47.696000Z</time>
      </trkpt>
      <trkpt lat="45.71027270805143" lon="10.405495594458838">
        <ele>326.3853671124471</ele>
        <time>2017-11-22T11:45:48.164000Z</time>
      </trkpt>
      <trkpt lat="45.710272919386625" lon="10.40549567900598">
        <ele>326.3862438911492</ele>
        <time>2017-11-22T11:45:48.164000Z</time>
      </trkpt>
      <trkpt lat="45.710272835567594" lon="10.405495511367917">
        <ele>326.386819178744</ele>
        <time>2017-11-22T11:45:48.164000Z</time>
      </trkpt>
      <trkpt lat="45.71042060852051" lon="10.40555477142334">
        <ele>327.0</ele>
        <time>2017-11-22T11:45:48.410000Z</time>
      </trkpt>
      <trkpt lat="45.71039923466742" lon="10.405683517456055">
        <ele>326.653169051654</ele>
        <time>2017-11-22T11:45:48.558000Z</time>
      </trkpt>
      <trkpt lat="45.71029186248779" lon="10.406005382537842">
        <ele>323.71828347434274</ele>
        <time>2017-11-22T11:45:48.957000Z</time>
      </trkpt>
      <trkpt lat="45.710227489471436" lon="10.406091213226318">
        <ele>323.3881645388323</ele>
        <time>2017-11-22T11:45:49.098000Z</time>
      </trkpt>
      <trkpt lat="45.709776878356934" lon="10.406498908996582">
        <ele>319.3876276384567</ele>
        <time>2017-11-22T11:45:49.952000Z</time>
      </trkpt>
      <trkpt lat="45.70975102426969" lon="10.406529002821792">
        <ele>319.2625787533355</ele>
        <time>2017-11-22T11:45:50.005000Z</time>
      </trkpt>
      <trkpt lat="45.70975081063807" lon="10.406529251486063">
        <ele>319.2615454780992</ele>
        <time>2017-11-22T11:45:50.005000Z</time>
      </trkpt>
      <trkpt lat="45.7097508944571" lon="10.406529083848">
        <ele>319.2610050990208</ele>
        <time>2017-11-22T11:45:50.005000Z</time>
      </trkpt>
      <trkpt lat="45.70964813232422" lon="10.406649112701416">
        <ele>318.7632866167856</ele>
        <time>2017-11-22T11:45:50.218000Z</time>
      </trkpt>
      <trkpt lat="45.7096266746521" lon="10.40677785873413">
        <ele>318.7497115639014</ele>
        <time>2017-11-22T11:45:50.366000Z</time>
      </trkpt>
      <trkpt lat="45.7101845741272" lon="10.40780782699585">
        <ele>315.0</ele>
        <time>2017-11-22T11:45:51.825000Z</time>
      </trkpt>
      <trkpt lat="45.710248947143555" lon="10.408258438110352">
        <ele>315.48110611431787</ele>
        <time>2017-11-22T11:45:52.340000Z</time>
      </trkpt>
      <trkpt lat="45.710206031799316" lon="10.408451557159424">
        <ele>316.0264263061419</ele>
        <time>2017-11-22T11:45:52.567000Z</time>
      </trkpt>
      <trkpt lat="45.710270488634706" lon="10.409331321716309">
        <ele>317.32807028699807</ele>
        <time>2017-11-22T11:45:53.557000Z</time>
      </trkpt>
      <trkpt lat="45.71039915084839" lon="10.409739017486572">
        <ele>317.81780903697967</ele>
        <time>2017-11-22T11:45:54.058000Z</time>
      </trkpt>
      <trkpt lat="45.71106433868408" lon="10.411133766174316">
        <ele>321.0</ele>
        <time>2017-11-22T11:45:55.949000Z</time>
      </trkpt>
      <trkpt lat="45.71132183074951" lon="10.41130542755127">
        <ele>322.3092621345764</ele>
        <time>2017-11-22T11:45:56.404000Z</time>
      </trkpt>
      <trkpt lat="45.71181535720825" lon="10.41203498840332">
        <ele>325.24550216860797</ele>
        <time>2017-11-22T11:45:57.541000Z</time>
      </trkpt>
      <trkpt lat="45.7119271725911" lon="10.412109476320156">
        <ele>326.62526428573136</ele>
        <time>2017-11-22T11:45:57.739000Z</time>
      </trkpt>
      <trkpt lat="45.71192759089172" lon="10.41210975497961">
        <ele>326.6304259689009</ele>
        <time>2017-11-22T11:45:57.739000Z</time>
      </trkpt>
      <trkpt lat="45.71192750707269" lon="10.412109587341547">
        <ele>326.63203677980965</ele>
        <time>2017-11-22T11:45:57.739000Z</time>
      </trkpt>
      <trkpt lat="45.712008476257324" lon="10.412163734436035">
        <ele>327.6318537995517</ele>
        <time>2017-11-22T11:45:57.882000Z</time>
      </trkpt>
      <trkpt lat="45.7120943069458" lon="10.41231393814087">
        <ele>329.14816748146336</ele>
        <time>2017-11-22T11:45:58.099000Z</time>
      </trkpt>
      <trkpt lat="45.71211576461792" lon="10.41280746459961">
        <ele>337.34462802206696</ele>
        <time>2017-11-22T11:45:58.653000Z</time>
      </trkpt>
      <trkpt lat="45.71241617202759" lon="10.41355848312378">
        <ele>346.1802766011267</ele>
        <time>2017-11-22T11:45:59.622000Z</time>
      </trkpt>
      <trkpt lat="45.71260929107666" lon="10.414395332336426">
        <ele>335.64662184084676</ele>
        <time>2017-11-22T11:46:00.609000Z</time>
      </trkpt>
      <trkpt lat="45.71293115615845" lon="10.417506694793701">
        <ele>373.0</ele>
        <time>2017-11-22T11:46:04.130000Z</time>
      </trkpt>
      <trkpt lat="45.7131028175354" lon="10.418236255645752">
        <ele>374.5215865061964</ele>
        <time>2017-11-22T11:46:04.992000Z</time>
      </trkpt>
      <trkpt lat="45.71327447891235" lon="10.418493747711182">
        <ele>382.6232023173011</ele>
        <time>2017-11-22T11:46:05.391000Z</time>
      </trkpt>
      <trkpt lat="45.71344614028931" lon="10.419180393218994">
        <ele>382.562878094425</ele>
        <time>2017-11-22T11:46:06.207000Z</time>
      </trkpt>
      <trkpt lat="45.7135534286499" lon="10.419309139251709">
        <ele>383.5129566726175</ele>
        <time>2017-11-22T11:46:06.431000Z</time>
      </trkpt>
      <trkpt lat="45.71389675140381" lon="10.419394969940186">
        <ele>385.87854411184475</ele>
        <time>2017-11-22T11:46:06.990000Z</time>
      </trkpt>
      <trkpt lat="45.71406841278076" lon="10.41954517364502">
        <ele>387.70951412869226</ele>
        <time>2017-11-22T11:46:07.312000Z</time>
      </trkpt>
      <trkpt lat="45.71436882019043" lon="10.419952869415283">
        <ele>384.4764150119677</ele>
        <time>2017-11-22T11:46:07.975000Z</time>
      </trkpt>
      <trkpt lat="45.71454048156738" lon="10.420467853546143">
        <ele>394.1030814170952</ele>
        <time>2017-11-22T11:46:08.614000Z</time>
      </trkpt>
      <trkpt lat="45.71464776992798" lon="10.420897006988525">
        <ele>405.0</ele>
        <time>2017-11-22T11:46:09.124000Z</time>
      </trkpt>
      <trkpt lat="45.71462631225586" lon="10.421197414398193">
        <ele>403.76178928258986</ele>
        <time>2017-11-22T11:46:09.462000Z</time>
      </trkpt>
      <trkpt lat="45.714733600616455" lon="10.421454906463623">
        <ele>402.5322764857992</ele>
        <time>2017-11-22T11:46:09.798000Z</time>
      </trkpt>
      <trkpt lat="45.71469068527222" lon="10.421497821807861">
        <ele>402.2249016754494</ele>
        <time>2017-11-22T11:46:09.882000Z</time>
      </trkpt>
      <trkpt lat="45.71460485458374" lon="10.421411991119385">
        <ele>401.61015174530183</ele>
        <time>2017-11-22T11:46:10.050000Z</time>
      </trkpt>
      <trkpt lat="45.7145619392395" lon="10.42102575302124">
        <ele>400.0065031788387</ele>
        <time>2017-11-22T11:46:10.488000Z</time>
      </trkpt>
      <trkpt lat="45.71439027786255" lon="10.42055368423462">
        <ele>389.82407213965615</ele>
        <time>2017-11-22T11:46:11.084000Z</time>
      </trkpt>
      <trkpt lat="45.714218616485596" lon="10.42029619216919">
        <ele>391.914959958948</ele>
        <time>2017-11-22T11:46:11.483000Z</time>
      </trkpt>
      <trkpt lat="45.71408987045288" lon="10.420188903808594">
        <ele>402.83453010167045</ele>
        <time>2017-11-22T11:46:11.722000Z</time>
      </trkpt>
      <trkpt lat="45.71385383605957" lon="10.420231819152832">
        <ele>404.8358231742438</ele>
        <time>2017-11-22T11:46:12.103000Z</time>
      </trkpt>
      <trkpt lat="45.7136607170105" lon="10.420489311218262">
        <ele>407.055202033219</ele>
        <time>2017-11-22T11:46:12.526000Z</time>
      </trkpt>
      <trkpt lat="45.71336030960083" lon="10.420746803283691">
        <ele>410.0</ele>
        <time>2017-11-22T11:46:13.087000Z</time>
      </trkpt>
      <trkpt lat="45.71308135986328" lon="10.420360565185547">
        <ele>417.8927265204479</ele>
        <time>2017-11-22T11:46:13.709000Z</time>
      </trkpt>
      <trkpt lat="45.712952613830566" lon="10.419609546661377">
        <ele>411.2795450062344</ele>
        <time>2017-11-22T11:46:14.575000Z</time>
      </trkpt>
      <trkpt lat="45.71280241012573" lon="10.419116020202637">
        <ele>402.85266377361876</ele>
        <time>2017-11-22T11:46:15.178000Z</time>
      </trkpt>
      <trkpt lat="45.71211576461792" lon="10.417914390563965">
        <ele>433.0</ele>
        <time>2017-11-22T11:46:16.916000Z</time>
      </trkpt>
      <trkpt lat="45.71183681488037" lon="10.417163372039795">
        <ele>438.4897185142257</ele>
        <time>2017-11-22T11:46:17.868000Z</time>
      </trkpt>
      <trkpt lat="45.71157932281494" lon="10.416111946105957">
        <ele>472.2294750869648</ele>
        <time>2017-11-22T11:46:19.115000Z</time>
      </trkpt>
      <trkpt lat="45.71155786514282" lon="10.415167808532715">
        <ele>468.08793352805725</ele>
        <time>2017-11-22T11:46:20.172000Z</time>
      </trkpt>
      <trkpt lat="45.711472034454346" lon="10.414695739746094">
        <ele>455.47228664329145</ele>
        <time>2017-11-22T11:46:20.718000Z</time>
      </trkpt>
      <trkpt lat="45.710957050323486" lon="10.413837432861328">
        <ele>433.3247323028707</ele>
        <time>2017-11-22T11:46:21.985000Z</time>
      </trkpt>
      <trkpt lat="45.710742473602295" lon="10.413751602172852">
        <ele>445.20164168412447</ele>
        <time>2017-11-22T11:46:22.342000Z</time>
      </trkpt>
      <trkpt lat="45.71069955825806" lon="10.41379451751709">
        <ele>445.016094731267</ele>
        <time>2017-11-22T11:46:22.426000Z</time>
      </trkpt>
      <trkpt lat="45.710957050323486" lon="10.41405200958252">
        <ele>431.23614802857134</ele>
        <time>2017-11-22T11:46:22.929000Z</time>
      </trkpt>
      <trkpt lat="45.7111930847168" lon="10.414588451385498">
        <ele>444.97436371692993</ele>
        <time>2017-11-22T11:46:23.639000Z</time>
      </trkpt>
      <trkpt lat="45.711257457733154" lon="10.414910316467285">
        <ele>449.00476133566775</ele>
        <time>2017-11-22T11:46:24.014000Z</time>
      </trkpt>
      <trkpt lat="45.71117162704468" lon="10.41703462600708">
        <ele>486.619913276473</ele>
        <time>2017-11-22T11:46:26.396000Z</time>
      </trkpt>
      <trkpt lat="45.71127891540527" lon="10.41802167892456">
        <ele>500.0</ele>
        <time>2017-11-22T11:46:27.514000Z</time>
      </trkpt>
      <trkpt lat="45.71155786514282" lon="10.418944358825684">
        <ele>510.25852657636005</ele>
        <time>2017-11-22T11:46:28.640000Z</time>
      </trkpt>
      <trkpt lat="45.711654440298304" lon="10.419363102664553">
        <ele>518.6702037180531</ele>
        <time>2017-11-22T11:46:29.134000Z</time>
      </trkpt>
      <trkpt lat="45.71165442466736" lon="10.419363034889102">
        <ele>518.6699547423744</ele>
        <time>2017-11-22T11:46:29.134000Z</time>
      </trkpt>
      <trkpt lat="45.71165442466736" lon="10.419362783432007">
        <ele>518.6690776097056</ele>
        <time>2017-11-22T11:46:29.135000Z</time>
      </trkpt>
      <trkpt lat="45.71181535720825" lon="10.420060157775879">
        <ele>505.4404318489191</ele>
        <time>2017-11-22T11:46:29.957000Z</time>
      </trkpt>
      <trkpt lat="45.71185827255249" lon="10.420660972595215">
        <ele>504.3044033072522</ele>
        <time>2017-11-22T11:46:30.633000Z</time>
      </trkpt>
      <trkpt lat="45.71183681488037" lon="10.421411991119385">
        <ele>507.2238910847523</ele>
        <time>2017-11-22T11:46:31.474000Z</time>
      </trkpt>
      <trkpt lat="45.71194410324097" lon="10.421669483184814">
        <ele>516.9671683484554</ele>
        <time>2017-11-22T11:46:31.810000Z</time>
      </trkpt>
      <trkpt lat="45.712244510650635" lon="10.422141551971436">
        <ele>523.5205142653589</ele>
        <time>2017-11-22T11:46:32.525000Z</time>
      </trkpt>
      <trkpt lat="45.71239471435547" lon="10.422699451446533">
        <ele>536.9888963056748</ele>
        <time>2017-11-22T11:46:33.194000Z</time>
      </trkpt>
      <trkpt lat="45.71256637573242" lon="10.422871112823486">
        <ele>522.9131726485383</ele>
        <time>2017-11-22T11:46:33.530000Z</time>
      </trkpt>
      <trkpt lat="45.712716579437256" lon="10.423107147216797">
        <ele>525.6406036984998</ele>
        <time>2017-11-22T11:46:33.887000Z</time>
      </trkpt>
      <trkpt lat="45.712974071502686" lon="10.424094200134277">
        <ele>543.3062855807619</ele>
        <time>2017-11-22T11:46:35.067000Z</time>
      </trkpt>
      <trkpt lat="45.71331739425659" lon="10.424673557281494">
        <ele>557.795972081203</ele>
        <time>2017-11-22T11:46:35.918000Z</time>
      </trkpt>
      <trkpt lat="45.71389675140381" lon="10.425188541412354">
        <ele>578.3664157123834</ele>
        <time>2017-11-22T11:46:37.011000Z</time>
      </trkpt>
      <trkpt lat="45.71408987045288" lon="10.425145626068115">
        <ele>581.096030615081</ele>
        <time>2017-11-22T11:46:37.324000Z</time>
      </trkpt>
      <trkpt lat="45.71439027786255" lon="10.425188541412354">
        <ele>578.2987295502375</ele>
        <time>2017-11-22T11:46:37.808000Z</time>
      </trkpt>
      <trkpt lat="45.714755058288574" lon="10.425360202789307">
        <ele>577.2846868116962</ele>
        <time>2017-11-22T11:46:38.424000Z</time>
      </trkpt>
      <trkpt lat="45.71503400802612" lon="10.425381660461426">
        <ele>569.2135965247537</ele>
        <time>2017-11-22T11:46:38.872000Z</time>
      </trkpt>
      <trkpt lat="45.71505546569824" lon="10.425617694854736">
        <ele>568.7746772665608</ele>
        <time>2017-11-22T11:46:39.138000Z</time>
      </trkpt>
      <trkpt lat="45.714991092681885" lon="10.426025390625">
        <ele>592.8682852790188</ele>
        <time>2017-11-22T11:46:39.606000Z</time>
      </trkpt>
      <trkpt lat="45.714755058288574" lon="10.426690578460693">
        <ele>605.2226522613901</ele>
        <time>2017-11-22T11:46:40.441000Z</time>
      </trkpt>
      <trkpt lat="45.71469068527222" lon="10.4270339012146">
        <ele>609.1053200952271</ele>
        <time>2017-11-22T11:46:40.839000Z</time>
      </trkpt>
      <trkpt lat="45.71464776992798" lon="10.427827835083008">
        <ele>617.469390211667</ele>
        <time>2017-11-22T11:46:41.730000Z</time>
      </trkpt>
      <trkpt lat="45.71469068527222" lon="10.42802095413208">
        <ele>617.9895793622777</ele>
        <time>2017-11-22T11:46:41.957000Z</time>
      </trkpt>
      <trkpt lat="45.71481943130493" lon="10.428171157836914">
        <ele>618.60001587899</ele>
        <time>2017-11-22T11:46:42.223000Z</time>
      </trkpt>
      <trkpt lat="45.715227127075195" lon="10.42827844619751">
        <ele>607.1238290411957</ele>
        <time>2017-11-22T11:46:42.888000Z</time>
      </trkpt>
      <trkpt lat="45.715463161468506" lon="10.428428649902344">
        <ele>622.0733061325062</ele>
        <time>2017-11-22T11:46:43.302000Z</time>
      </trkpt>
      <trkpt lat="45.716257095336914" lon="10.42952299118042">
        <ele>637.7630219787019</ele>
        <time>2017-11-22T11:46:45.068000Z</time>
      </trkpt>
      <trkpt lat="45.716493129730225" lon="10.429544448852539">
        <ele>639.7614816745458</ele>
        <time>2017-11-22T11:46:45.447000Z</time>
      </trkpt>
      <trkpt lat="45.71705102920532" lon="10.429437160491943">
        <ele>644.072954280094</ele>
        <time>2017-11-22T11:46:46.349000Z</time>
      </trkpt>
      <trkpt lat="45.71715831756592" lon="10.429587364196777">
        <ele>645.1332383803295</ele>
        <time>2017-11-22T11:46:46.590000Z</time>
      </trkpt>
      <trkpt lat="45.71717977523804" lon="10.429801940917969">
        <ele>646.2028259051923</ele>
        <time>2017-11-22T11:46:46.833000Z</time>
      </trkpt>
      <trkpt lat="45.7170295715332" lon="10.43025255203247">
        <ele>653.0</ele>
        <time>2017-11-22T11:46:47.392000Z</time>
      </trkpt>
      <trkpt lat="45.717008113861084" lon="10.430660247802734">
        <ele>652.3683133230478</ele>
        <time>2017-11-22T11:46:47.850000Z</time>
      </trkpt>
      <trkpt lat="45.71707248687744" lon="10.43102502822876">
        <ele>653.4536630631175</ele>
        <time>2017-11-22T11:46:48.271000Z</time>
      </trkpt>
      <trkpt lat="45.717244148254395" lon="10.431346893310547">
        <ele>652.8278917941652</ele>
        <time>2017-11-22T11:46:48.724000Z</time>
      </trkpt>
      <trkpt lat="45.7176947593689" lon="10.431904792785645">
        <ele>648.5098401567828</ele>
        <time>2017-11-22T11:46:49.679000Z</time>
      </trkpt>
      <trkpt lat="45.71780204772949" lon="10.432205200195312">
        <ele>649.2964589049266</ele>
        <time>2017-11-22T11:46:50.057000Z</time>
      </trkpt>
      <trkpt lat="45.71818828582764" lon="10.432419776916504">
        <ele>650.6796971559465</ele>
        <time>2017-11-22T11:46:50.721000Z</time>
      </trkpt>
      <trkpt lat="45.71840286254883" lon="10.432655811309814">
        <ele>649.9163995666848</ele>
        <time>2017-11-22T11:46:51.155000Z</time>
      </trkpt>
      <trkpt lat="45.718510150909424" lon="10.433599948883057">
        <ele>664.2017805027443</ele>
        <time>2017-11-22T11:46:52.226000Z</time>
      </trkpt>
      <trkpt lat="45.71887493133545" lon="10.433964729309082">
        <ele>664.7596283212379</ele>
        <time>2017-11-22T11:46:52.939000Z</time>
      </trkpt>
      <trkpt lat="45.719497203826904" lon="10.434415340423584">
        <ele>663.3006094092871</ele>
        <time>2017-11-22T11:46:54.057000Z</time>
      </trkpt>
      <trkpt lat="45.71964740753174" lon="10.434629917144775">
        <ele>665.340009384702</ele>
        <time>2017-11-22T11:46:54.397000Z</time>
      </trkpt>
      <trkpt lat="45.719733238220215" lon="10.434908866882324">
        <ele>667.9086367920501</ele>
        <time>2017-11-22T11:46:54.738000Z</time>
      </trkpt>
      <trkpt lat="45.719754695892334" lon="10.43501615524292">
        <ele>675.1823642272861</ele>
        <time>2017-11-22T11:46:54.863000Z</time>
      </trkpt>
      <trkpt lat="45.71969032287598" lon="10.43525218963623">
        <ele>677.3175966778276</ele>
        <time>2017-11-22T11:46:55.147000Z</time>
      </trkpt>
      <trkpt lat="45.71943283081055" lon="10.43553113937378">
        <ele>681.21405986203</ele>
        <time>2017-11-22T11:46:55.665000Z</time>
      </trkpt>
      <trkpt lat="45.71934700012207" lon="10.435895919799805">
        <ele>679.6022325097368</ele>
        <time>2017-11-22T11:46:56.096000Z</time>
      </trkpt>
      <trkpt lat="45.71906805038452" lon="10.436131954193115">
        <ele>692.8830833056328</ele>
        <time>2017-11-22T11:46:56.615000Z</time>
      </trkpt>
      <trkpt lat="45.7185959815979" lon="10.43628215789795">
        <ele>697.779963708927</ele>
        <time>2017-11-22T11:46:57.390000Z</time>
      </trkpt>
      <trkpt lat="45.71838140487671" lon="10.436217784881592">
        <ele>700.0</ele>
        <time>2017-11-22T11:46:57.741000Z</time>
      </trkpt>
      <trkpt lat="45.718231201171875" lon="10.43628215789795">
        <ele>708.7591737166031</ele>
        <time>2017-11-22T11:46:57.992000Z</time>
      </trkpt>
      <trkpt lat="45.71801694489298" lon="10.436529363818257">
        <ele>711.2612726879694</ele>
        <time>2017-11-22T11:46:58.433000Z</time>
      </trkpt>
      <trkpt lat="45.71801645681262" lon="10.4365299269557">
        <ele>711.2669725111027</ele>
        <time>2017-11-22T11:46:58.434000Z</time>
      </trkpt>
      <trkpt lat="45.71801654063165" lon="10.436529759317636">
        <ele>711.268281736585</ele>
        <time>2017-11-22T11:46:58.434000Z</time>
      </trkpt>
      <trkpt lat="45.717952251434326" lon="10.436604022979736">
        <ele>712.0194049447442</ele>
        <time>2017-11-22T11:46:58.566000Z</time>
      </trkpt>
      <trkpt lat="45.717716217041016" lon="10.436561107635498">
        <ele>714.1832016668274</ele>
        <time>2017-11-22T11:46:58.947000Z</time>
      </trkpt>
      <trkpt lat="45.717244148254395" lon="10.436110496520996">
        <ele>722.6757514457428</ele>
        <time>2017-11-22T11:46:59.856000Z</time>
      </trkpt>
      <trkpt lat="45.7171368598938" lon="10.436174869537354">
        <ele>721.8153897736066</ele>
        <time>2017-11-22T11:47:00.042000Z</time>
      </trkpt>
      <trkpt lat="45.71707248687744" lon="10.436325073242188">
        <ele>720.9052425500414</ele>
        <time>2017-11-22T11:47:00.239000Z</time>
      </trkpt>
      <trkpt lat="45.71709394454956" lon="10.436882972717285">
        <ele>709.6864632335279</ele>
        <time>2017-11-22T11:47:00.864000Z</time>
      </trkpt>
      <trkpt lat="45.71707248687744" lon="10.437376499176025">
        <ele>707.1328795015583</ele>
        <time>2017-11-22T11:47:01.417000Z</time>
      </trkpt>
      <trkpt lat="45.71690082550049" lon="10.437912940979004">
        <ele>701.9547083289912</ele>
        <time>2017-11-22T11:47:02.078000Z</time>
      </trkpt>
      <trkpt lat="45.71655750274658" lon="10.438299179077148">
        <ele>721.0191989296354</ele>
        <time>2017-11-22T11:47:02.778000Z</time>
      </trkpt>
      <trkpt lat="45.7165789604187" lon="10.438535213470459">
        <ele>718.7406849748919</ele>
        <time>2017-11-22T11:47:03.044000Z</time>
      </trkpt>
      <trkpt lat="45.71608543395996" lon="10.438685417175293">
        <ele>724.9789518989788</ele>
        <time>2017-11-22T11:47:03.853000Z</time>
      </trkpt>
      <trkpt lat="45.71580648422241" lon="10.438921451568604">
        <ele>730.86906120613</ele>
        <time>2017-11-22T11:47:04.372000Z</time>
      </trkpt>
      <trkpt lat="45.71561336517334" lon="10.439200401306152">
        <ele>732.0335126105375</ele>
        <time>2017-11-22T11:47:04.812000Z</time>
      </trkpt>
      <trkpt lat="45.715506076812744" lon="10.439436435699463">
        <ele>733.3264270794411</ele>
        <time>2017-11-22T11:47:05.127000Z</time>
      </trkpt>
      <trkpt lat="45.715484619140625" lon="10.439693927764893">
        <ele>734.5168583260174</ele>
        <time>2017-11-22T11:47:05.417000Z</time>
      </trkpt>
      <trkpt lat="45.71552753448486" lon="10.440101623535156">
        <ele>739.0762403823177</ele>
        <time>2017-11-22T11:47:05.879000Z</time>
      </trkpt>
      <trkpt lat="45.71582794189453" lon="10.440573692321777">
        <ele>741.1768338076918</ele>
        <time>2017-11-22T11:47:06.594000Z</time>
      </trkpt>
      <trkpt lat="45.716965198516846" lon="10.4414963722229">
        <ele>751.0</ele>
        <time>2017-11-22T11:47:08.689000Z</time>
      </trkpt>
      <trkpt lat="45.717201232910156" lon="10.441818237304688">
        <ele>753.4991369871569</ele>
        <time>2017-11-22T11:47:09.211000Z</time>
      </trkpt>
      <trkpt lat="45.71735143661499" lon="10.442097187042236">
        <ele>754.6305072619253</ele>
        <time>2017-11-22T11:47:09.605000Z</time>
      </trkpt>
      <trkpt lat="45.71739435195923" lon="10.442354679107666">
        <ele>755.7668301844345</ele>
        <time>2017-11-22T11:47:09.901000Z</time>
      </trkpt>
      <trkpt lat="45.71737289428711" lon="10.442569255828857">
        <ele>757.6972870097246</ele>
        <time>2017-11-22T11:47:10.144000Z</time>
      </trkpt>
      <trkpt lat="45.71717977523804" lon="10.443191528320312">
        <ele>760.620344750177</ele>
        <time>2017-11-22T11:47:10.906000Z</time>
      </trkpt>
      <trkpt lat="45.7171368598938" lon="10.4435133934021">
        <ele>765.6935703737114</ele>
        <time>2017-11-22T11:47:11.273000Z</time>
      </trkpt>
      <trkpt lat="45.71715831756592" lon="10.444049835205078">
        <ele>768.0</ele>
        <time>2017-11-22T11:47:11.874000Z</time>
      </trkpt>
      <trkpt lat="45.71707248687744" lon="10.444200038909912">
        <ele>773.6270039827399</ele>
        <time>2017-11-22T11:47:12.091000Z</time>
      </trkpt>
      <trkpt lat="45.71666479110718" lon="10.444543361663818">
        <ele>764.1485200556393</ele>
        <time>2017-11-22T11:47:12.849000Z</time>
      </trkpt>
      <trkpt lat="45.71655750274658" lon="10.444693565368652">
        <ele>764.8426702458977</ele>
        <time>2017-11-22T11:47:13.090000Z</time>
      </trkpt>
      <trkpt lat="45.716514587402344" lon="10.444951057434082">
        <ele>765.6978467993064</ele>
        <time>2017-11-22T11:47:13.386000Z</time>
      </trkpt>
      <trkpt lat="45.71655750274658" lon="10.445315837860107">
        <ele>772.5595160921583</ele>
        <time>2017-11-22T11:47:13.800000Z</time>
      </trkpt>
      <trkpt lat="45.71683653630316" lon="10.446410179138184">
        <ele>791.7251280919894</ele>
        <time>2017-11-22T11:47:15.104000Z</time>
      </trkpt>
      <trkpt lat="45.71683645248413" lon="10.446410179138184">
        <ele>791.7250835808301</ele>
        <time>2017-11-22T11:47:15.104000Z</time>
      </trkpt>
      <trkpt lat="45.716986656188965" lon="10.446603298187256">
        <ele>791.6178952876136</ele>
        <time>2017-11-22T11:47:15.428000Z</time>
      </trkpt>
      <trkpt lat="45.717244232073426" lon="10.44675350189209">
        <ele>783.8035436079759</ele>
        <time>2017-11-22T11:47:15.874000Z</time>
      </trkpt>
      <trkpt lat="45.7175874710083" lon="10.446882247924805">
        <ele>788.9565241194664</ele>
        <time>2017-11-22T11:47:16.443000Z</time>
      </trkpt>
      <trkpt lat="45.71827411651611" lon="10.44748306274414">
        <ele>789.3034617968577</ele>
        <time>2017-11-22T11:47:17.733000Z</time>
      </trkpt>
      <trkpt lat="45.71853160858154" lon="10.447590351104736">
        <ele>776.8730792388404</ele>
        <time>2017-11-22T11:47:18.163000Z</time>
      </trkpt>
      <trkpt lat="45.71928262710571" lon="10.447697639465332">
        <ele>772.3661869142344</ele>
        <time>2017-11-22T11:47:19.373000Z</time>
      </trkpt>
      <trkpt lat="45.71936845779419" lon="10.447847843170166">
        <ele>771.7822835771891</ele>
        <time>2017-11-22T11:47:19.590000Z</time>
      </trkpt>
      <trkpt lat="45.71930408477783" lon="10.448298454284668">
        <ele>770.3986354636792</ele>
        <time>2017-11-22T11:47:20.105000Z</time>
      </trkpt>
      <trkpt lat="45.71932554244995" lon="10.448555946350098">
        <ele>770.7540865643404</ele>
        <time>2017-11-22T11:47:20.395000Z</time>
      </trkpt>
      <trkpt lat="45.71943283081055" lon="10.44872760772705">
        <ele>771.0698906803826</ele>
        <time>2017-11-22T11:47:20.653000Z</time>
      </trkpt>
      <trkpt lat="45.71969032287598" lon="10.4490065574646">
        <ele>771.7037309389037</ele>
        <time>2017-11-22T11:47:21.171000Z</time>
      </trkpt>
      <trkpt lat="45.719711780548096" lon="10.449113845825195">
        <ele>771.8567057039687</ele>
        <time>2017-11-22T11:47:21.296000Z</time>
      </trkpt>
      <trkpt lat="45.719218254089355" lon="10.45050859451294">
        <ele>776.0</ele>
        <time>2017-11-22T11:47:23.046000Z</time>
      </trkpt>
      <trkpt lat="45.71917533874512" lon="10.450701713562012">
        <ele>775.9565503457006</ele>
        <time>2017-11-22T11:47:23.273000Z</time>
      </trkpt>
      <trkpt lat="45.719218254089355" lon="10.451152324676514">
        <ele>779.5257154047786</ele>
        <time>2017-11-22T11:47:23.782000Z</time>
      </trkpt>
      <trkpt lat="45.71917533874512" lon="10.451323986053467">
        <ele>779.4866239398083</ele>
        <time>2017-11-22T11:47:23.986000Z</time>
      </trkpt>
      <trkpt lat="45.71887493133545" lon="10.451602935791016">
        <ele>755.5321077999989</ele>
        <time>2017-11-22T11:47:24.560000Z</time>
      </trkpt>
      <trkpt lat="45.718703269958496" lon="10.451967716217041">
        <ele>752.5659768887617</ele>
        <time>2017-11-22T11:47:25.052000Z</time>
      </trkpt>
      <trkpt lat="45.71866035461426" lon="10.452332496643066">
        <ele>747.548961311962</ele>
        <time>2017-11-22T11:47:25.466000Z</time>
      </trkpt>
      <trkpt lat="45.718750850175105" lon="10.452694562597609">
        <ele>741.0</ele>
        <time>2017-11-22T11:47:25.896000Z</time>
      </trkpt>
      <trkpt lat="45.71875096298754" lon="10.452695013955235">
        <ele>740.9963851383858</ele>
        <time>2017-11-22T11:47:25.897000Z</time>
      </trkpt>
      <trkpt lat="45.71875096298754" lon="10.45269476249814">
        <ele>740.994489085896</ele>
        <time>2017-11-22T11:47:25.898000Z</time>
      </trkpt>
      <trkpt lat="45.71875087916851" lon="10.452694678679109">
        <ele>740.9933850499029</ele>
        <time>2017-11-22T11:47:25.898000Z</time>
      </trkpt>
      <trkpt lat="45.71876764297485" lon="10.45276165008545">
        <ele>740.4569294394852</ele>
        <time>2017-11-22T11:47:25.978000Z</time>
      </trkpt>
      <trkpt lat="45.71876764297485" lon="10.453147888183594">
        <ele>737.5445936843062</ele>
        <time>2017-11-22T11:47:26.410000Z</time>
      </trkpt>
      <trkpt lat="45.718746185302734" lon="10.453448295593262">
        <ele>728.6009527006181</ele>
        <time>2017-11-22T11:47:26.748000Z</time>
      </trkpt>
      <trkpt lat="45.71859606541693" lon="10.453813076019287">
        <ele>725.4081412173632</ele>
        <time>2017-11-22T11:47:27.222000Z</time>
      </trkpt>
      <trkpt lat="45.71810245513916" lon="10.454564094543457">
        <ele>716.2974424539028</ele>
        <time>2017-11-22T11:47:28.376000Z</time>
      </trkpt>
      <trkpt lat="45.717973709106445" lon="10.455207824707031">
        <ele>707.7599267073261</ele>
        <time>2017-11-22T11:47:29.126000Z</time>
      </trkpt>
      <trkpt lat="45.71782358922064" lon="10.455701351165771">
        <ele>704.7742233811952</ele>
        <time>2017-11-22T11:47:29.729000Z</time>
      </trkpt>
      <trkpt lat="45.71743726730347" lon="10.456130504608154">
        <ele>696.8905365052769</ele>
        <time>2017-11-22T11:47:30.513000Z</time>
      </trkpt>
      <trkpt lat="45.71717977523804" lon="10.456559658050537">
        <ele>697.370075635699</ele>
        <time>2017-11-22T11:47:31.146000Z</time>
      </trkpt>
      <trkpt lat="45.71694374084473" lon="10.457117557525635">
        <ele>701.589577822196</ele>
        <time>2017-11-22T11:47:31.876000Z</time>
      </trkpt>
      <trkpt lat="45.71679353713989" lon="10.457160472869873">
        <ele>701.7754866727387</ele>
        <time>2017-11-22T11:47:32.122000Z</time>
      </trkpt>
      <trkpt lat="45.71636438369751" lon="10.456945896148682">
        <ele>692.8576321421884</ele>
        <time>2017-11-22T11:47:32.851000Z</time>
      </trkpt>
      <trkpt lat="45.71529150009155" lon="10.457053184509277">
        <ele>682.9691096237115</ele>
        <time>2017-11-22T11:47:34.575000Z</time>
      </trkpt>
      <trkpt lat="45.714004039764404" lon="10.457675457000732">
        <ele>683.0</ele>
        <time>2017-11-22T11:47:36.753000Z</time>
      </trkpt>
      <trkpt lat="45.713725090026855" lon="10.457868576049805">
        <ele>684.2300236041175</ele>
        <time>2017-11-22T11:47:37.250000Z</time>
      </trkpt>
      <trkpt lat="45.713467597961426" lon="10.458190441131592">
        <ele>685.5868636201859</ele>
        <time>2017-11-22T11:47:37.798000Z</time>
      </trkpt>
      <trkpt lat="45.71303844451904" lon="10.458834171295166">
        <ele>690.0540298228381</ele>
        <time>2017-11-22T11:47:38.794000Z</time>
      </trkpt>
      <trkpt lat="45.71293115615845" lon="10.459134578704834">
        <ele>692.0040749183448</ele>
        <time>2017-11-22T11:47:39.172000Z</time>
      </trkpt>
      <trkpt lat="45.712974071502686" lon="10.459756851196289">
        <ele>698.2845036933008</ele>
        <time>2017-11-22T11:47:39.872000Z</time>
      </trkpt>
      <trkpt lat="45.71290969848633" lon="10.460164546966553">
        <ele>703.8756795688037</ele>
        <time>2017-11-22T11:47:40.340000Z</time>
      </trkpt>
      <trkpt lat="45.71263074874878" lon="10.460872650146484">
        <ele>709.2242123357083</ele>
        <time>2017-11-22T11:47:41.250000Z</time>
      </trkpt>
      <trkpt lat="45.71260937489569" lon="10.461044311523438">
        <ele>709.8708833465498</ele>
        <time>2017-11-22T11:47:41.445000Z</time>
      </trkpt>
      <trkpt lat="45.71260929107666" lon="10.46170949935913">
        <ele>712.6711529712614</ele>
        <time>2017-11-22T11:47:42.190000Z</time>
      </trkpt>
      <trkpt lat="45.712523460388184" lon="10.462331771850586">
        <ele>710.970556654822</ele>
        <time>2017-11-22T11:47:42.900000Z</time>
      </trkpt>
      <trkpt lat="45.71258783340454" lon="10.462675094604492">
        <ele>707.9073626248119</ele>
        <time>2017-11-22T11:47:43.298000Z</time>
      </trkpt>
      <trkpt lat="45.71269512176514" lon="10.462889671325684">
        <ele>705.8806829532886</ele>
        <time>2017-11-22T11:47:43.593000Z</time>
      </trkpt>
      <trkpt lat="45.71266858458116" lon="10.463062287811606">
        <ele>704.5233710220915</ele>
        <time>2017-11-22T11:47:43.791000Z</time>
      </trkpt>
      <trkpt lat="45.71266838349402" lon="10.463063595816493">
        <ele>704.5130859610645</ele>
        <time>2017-11-22T11:47:43.793000Z</time>
      </trkpt>
      <trkpt lat="45.71266829967499" lon="10.463063847273588">
        <ele>704.5109462151396</ele>
        <time>2017-11-22T11:47:43.793000Z</time>
      </trkpt>
      <trkpt lat="45.7126522064209" lon="10.463168621063232">
        <ele>703.6871257940088</ele>
        <time>2017-11-22T11:47:43.913000Z</time>
      </trkpt>
      <trkpt lat="45.71243762969971" lon="10.463790893554688">
        <ele>688.0242661373462</ele>
        <time>2017-11-22T11:47:44.690000Z</time>
      </trkpt>
      <trkpt lat="45.712459087371826" lon="10.464177131652832">
        <ele>688.0639063651261</ele>
        <time>2017-11-22T11:47:45.124000Z</time>
      </trkpt>
      <trkpt lat="45.71263074874878" lon="10.464563369750977">
        <ele>696.2318455929035</ele>
        <time>2017-11-22T11:47:45.637000Z</time>
      </trkpt>
      <trkpt lat="45.712974071502686" lon="10.464842319488525">
        <ele>697.262347537862</ele>
        <time>2017-11-22T11:47:46.270000Z</time>
      </trkpt>
      <trkpt lat="45.713253021240234" lon="10.465013980865479">
        <ele>689.623565598618</ele>
        <time>2017-11-22T11:47:46.757000Z</time>
      </trkpt>
      <trkpt lat="45.713489055633545" lon="10.465400218963623">
        <ele>700.9240706725501</ele>
        <time>2017-11-22T11:47:47.332000Z</time>
      </trkpt>
      <trkpt lat="45.71363934315741" lon="10.465550422668457">
        <ele>702.1004405737017</ele>
        <time>2017-11-22T11:47:47.626000Z</time>
      </trkpt>
      <trkpt lat="45.71406841278076" lon="10.465915203094482">
        <ele>700.6366696445156</ele>
        <time>2017-11-22T11:47:48.426000Z</time>
      </trkpt>
      <trkpt lat="45.71441173553467" lon="10.466516017913818">
        <ele>722.8070052720356</ele>
        <time>2017-11-22T11:47:49.295000Z</time>
      </trkpt>
      <trkpt lat="45.714476108551025" lon="10.466773509979248">
        <ele>723.704197146657</ele>
        <time>2017-11-22T11:47:49.601000Z</time>
      </trkpt>
      <trkpt lat="45.71443319320679" lon="10.467031002044678">
        <ele>726.8310936171019</ele>
        <time>2017-11-22T11:47:49.897000Z</time>
      </trkpt>
      <trkpt lat="45.714352638001714" lon="10.467169049279144">
        <ele>727.8431178108236</ele>
        <time>2017-11-22T11:47:50.098000Z</time>
      </trkpt>
      <trkpt lat="45.71435180492699" lon="10.467170476913452">
        <ele>727.8535838079184</ele>
        <time>2017-11-22T11:47:50.100000Z</time>
      </trkpt>
      <trkpt lat="45.71428298950195" lon="10.467288494110107">
        <ele>728.7185013083622</ele>
        <time>2017-11-22T11:47:50.272000Z</time>
      </trkpt>
      <trkpt lat="45.7136607170105" lon="10.467803478240967">
        <ele>715.6904504544622</ele>
        <time>2017-11-22T11:47:51.424000Z</time>
      </trkpt>
      <trkpt lat="45.713296020403504" lon="10.468575954437256">
        <ele>713.7392670032094</ele>
        <time>2017-11-22T11:47:52.468000Z</time>
      </trkpt>
      <trkpt lat="45.71288824081421" lon="10.46971321105957">
        <ele>722.5379895216516</ele>
        <time>2017-11-22T11:47:53.899000Z</time>
      </trkpt>
      <trkpt lat="45.71284532546997" lon="10.470077991485596">
        <ele>730.2481743551962</ele>
        <time>2017-11-22T11:47:54.313000Z</time>
      </trkpt>
      <trkpt lat="45.71284532546997" lon="10.470442771911621">
        <ele>732.9271516387657</ele>
        <time>2017-11-22T11:47:54.721000Z</time>
      </trkpt>
      <trkpt lat="45.712716579437256" lon="10.471065044403076">
        <ele>740.6935782799283</ele>
        <time>2017-11-22T11:47:55.448000Z</time>
      </trkpt>
      <trkpt lat="45.712759494781494" lon="10.471193790435791">
        <ele>741.7413146928681</ele>
        <time>2017-11-22T11:47:55.608000Z</time>
      </trkpt>
      <trkpt lat="45.71278095245361" lon="10.471494197845459">
        <ele>743.9590471775846</ele>
        <time>2017-11-22T11:47:55.946000Z</time>
      </trkpt>
      <trkpt lat="45.71263074874878" lon="10.472288131713867">
        <ele>754.0</ele>
        <time>2017-11-22T11:47:56.867000Z</time>
      </trkpt>
      <trkpt lat="45.712759494781494" lon="10.472931861877441">
        <ele>759.7974285746471</ele>
        <time>2017-11-22T11:47:57.617000Z</time>
      </trkpt>
      <trkpt lat="45.71290969848633" lon="10.47323226928711">
        <ele>761.5249309297263</ele>
        <time>2017-11-22T11:47:58.031000Z</time>
      </trkpt>
      <trkpt lat="45.71308135986328" lon="10.473854541778564">
        <ele>765.3198205697204</ele>
        <time>2017-11-22T11:47:58.780000Z</time>
      </trkpt>
      <trkpt lat="45.71314573287964" lon="10.474305152893066">
        <ele>768.5709825571463</ele>
        <time>2017-11-22T11:47:59.295000Z</time>
      </trkpt>
      <trkpt lat="45.712995529174805" lon="10.474798679351807">
        <ele>771.9863353513323</ele>
        <time>2017-11-22T11:47:59.898000Z</time>
      </trkpt>
      <trkpt lat="45.71280241012573" lon="10.475184917449951">
        <ele>780.0</ele>
        <time>2017-11-22T11:48:00.430000Z</time>
      </trkpt>
      <trkpt lat="45.7127980088872" lon="10.475358392730898">
        <ele>780.8029716129591</ele>
        <time>2017-11-22T11:48:00.624000Z</time>
      </trkpt>
      <trkpt lat="45.71279796771705" lon="10.475360015407205">
        <ele>780.8104825566337</ele>
        <time>2017-11-22T11:48:00.626000Z</time>
      </trkpt>
      <trkpt lat="45.71279796771705" lon="10.475359680131078">
        <ele>780.8120334385462</ele>
        <time>2017-11-22T11:48:00.626000Z</time>
      </trkpt>
      <trkpt lat="45.71278095245361" lon="10.476021766662598">
        <ele>788.8767120658309</ele>
        <time>2017-11-22T11:48:01.368000Z</time>
      </trkpt>
      <trkpt lat="45.712974071502686" lon="10.476901531219482">
        <ele>791.8092444511939</ele>
        <time>2017-11-22T11:48:02.400000Z</time>
      </trkpt>
      <trkpt lat="45.712995529174805" lon="10.477116107940674">
        <ele>792.8550467124477</ele>
        <time>2017-11-22T11:48:02.643000Z</time>
      </trkpt>
      <trkpt lat="45.71278095245361" lon="10.477867126464844">
        <ele>799.1033291296422</ele>
        <time>2017-11-22T11:48:03.551000Z</time>
      </trkpt>
      <trkpt lat="45.71278095245361" lon="10.478618144989014">
        <ele>805.7266814701649</ele>
        <time>2017-11-22T11:48:04.392000Z</time>
      </trkpt>
      <trkpt lat="45.71288824081421" lon="10.479154586791992">
        <ele>809.2833908212024</ele>
        <time>2017-11-22T11:48:05.017000Z</time>
      </trkpt>
      <trkpt lat="45.713231563568115" lon="10.479497909545898">
        <ele>815.6797051567861</ele>
        <time>2017-11-22T11:48:05.688000Z</time>
      </trkpt>
      <trkpt lat="45.713489055633545" lon="10.479927062988281">
        <ele>836.0105118500352</ele>
        <time>2017-11-22T11:48:06.321000Z</time>
      </trkpt>
      <trkpt lat="45.71359634399414" lon="10.480291843414307">
        <ele>839.6723455492773</ele>
        <time>2017-11-22T11:48:06.764000Z</time>
      </trkpt>
      <trkpt lat="45.7136607170105" lon="10.48093557357788">
        <ele>841.6666666666666</ele>
        <time>2017-11-22T11:48:07.492000Z</time>
      </trkpt>
      <trkpt lat="45.71402549743652" lon="10.481879711151123">
        <ele>844.2741537011817</ele>
        <time>2017-11-22T11:48:08.700000Z</time>
      </trkpt>
      <trkpt lat="45.71417570114136" lon="10.482738018035889">
        <ele>863.553007427215</ele>
        <time>2017-11-22T11:48:09.690000Z</time>
      </trkpt>
      <trkpt lat="45.71484088897705" lon="10.48419713973999">
        <ele>861.0</ele>
        <time>2017-11-22T11:48:11.641000Z</time>
      </trkpt>
      <trkpt lat="45.71477651596069" lon="10.484497547149658">
        <ele>861.1796840379244</ele>
        <time>2017-11-22T11:48:11.993000Z</time>
      </trkpt>
      <trkpt lat="45.7146692276001" lon="10.484819412231445">
        <ele>861.3836279042712</ele>
        <time>2017-11-22T11:48:12.392000Z</time>
      </trkpt>
      <trkpt lat="45.714667298383354" lon="10.484864829217988">
        <ele>861.409645942072</ele>
        <time>2017-11-22T11:48:12.443000Z</time>
      </trkpt>
      <trkpt lat="45.71466721594334" lon="10.484866769984365">
        <ele>861.4107577492999</ele>
        <time>2017-11-22T11:48:12.445000Z</time>
      </trkpt>
      <trkpt lat="45.71466721594334" lon="10.48486651852727">
        <ele>861.4109015357393</ele>
        <time>2017-11-22T11:48:12.446000Z</time>
      </trkpt>
      <trkpt lat="45.71464776992798" lon="10.485312938690186">
        <ele>862.3333333333334</ele>
        <time>2017-11-22T11:48:12.947000Z</time>
      </trkpt>
      <trkpt lat="45.71469076909125" lon="10.485527515411377">
        <ele>863.0734576190292</ele>
        <time>2017-11-22T11:48:13.197000Z</time>
      </trkpt>
      <trkpt lat="45.71469068527222" lon="10.485527515411377">
        <ele>863.0738556141346</ele>
        <time>2017-11-22T11:48:13.197000Z</time>
      </trkpt>
      <trkpt lat="45.71488380432129" lon="10.486514568328857">
        <ele>865.8056904591853</ele>
        <time>2017-11-22T11:48:14.344000Z</time>
      </trkpt>
      <trkpt lat="45.71509838104248" lon="10.486857891082764">
        <ele>874.5628269311838</ele>
        <time>2017-11-22T11:48:14.860000Z</time>
      </trkpt>
      <trkpt lat="45.715270042419434" lon="10.487008094787598">
        <ele>875.0139339331866</ele>
        <time>2017-11-22T11:48:15.182000Z</time>
      </trkpt>
      <trkpt lat="45.7155704498291" lon="10.487115383148193">
        <ele>875.7082249412996</ele>
        <time>2017-11-22T11:48:15.678000Z</time>
      </trkpt>
      <trkpt lat="45.71563482284546" lon="10.487244129180908">
        <ele>875.9561665598326</ele>
        <time>2017-11-22T11:48:15.855000Z</time>
      </trkpt>
      <trkpt lat="45.7156777381897" lon="10.48743724822998">
        <ele>876.2734886528011</ele>
        <time>2017-11-22T11:48:16.082000Z</time>
      </trkpt>
      <trkpt lat="45.71565628051758" lon="10.488102436065674">
        <ele>876.649453212408</ele>
        <time>2017-11-22T11:48:16.827000Z</time>
      </trkpt>
      <trkpt lat="45.715699195861816" lon="10.488295555114746">
        <ele>878.7512019855307</ele>
        <time>2017-11-22T11:48:17.054000Z</time>
      </trkpt>
      <trkpt lat="45.715763568878174" lon="10.488317012786865">
        <ele>879.7328835559464</ele>
        <time>2017-11-22T11:48:17.160000Z</time>
      </trkpt>
      <trkpt lat="45.71582794189453" lon="10.48793077468872">
        <ele>883.8509287161987</ele>
        <time>2017-11-22T11:48:17.604000Z</time>
      </trkpt>
      <trkpt lat="45.71584939956665" lon="10.487909317016602">
        <ele>896.621468645316</ele>
        <time>2017-11-22T11:48:17.646000Z</time>
      </trkpt>
      <trkpt lat="45.71589231491089" lon="10.488016605377197">
        <ele>898.063747557062</ele>
        <time>2017-11-22T11:48:17.784000Z</time>
      </trkpt>
      <trkpt lat="45.71593523025513" lon="10.48893928527832">
        <ele>911.5168319096946</ele>
        <time>2017-11-22T11:48:18.819000Z</time>
      </trkpt>
      <trkpt lat="45.71591377258301" lon="10.48917531967163">
        <ele>915.09330135159</ele>
        <time>2017-11-22T11:48:19.085000Z</time>
      </trkpt>
      <trkpt lat="45.71580648422241" lon="10.48921823501587">
        <ele>902.5896003036346</ele>
        <time>2017-11-22T11:48:19.264000Z</time>
      </trkpt>
      <trkpt lat="45.71561336517334" lon="10.489497184753418">
        <ele>902.9908625847937</ele>
        <time>2017-11-22T11:48:19.704000Z</time>
      </trkpt>
      <trkpt lat="45.71559190750122" lon="10.489797592163086">
        <ele>903.2993217735951</ele>
        <time>2017-11-22T11:48:20.042000Z</time>
      </trkpt>
      <trkpt lat="45.715270042419434" lon="10.49069881439209">
        <ele>909.0</ele>
        <time>2017-11-22T11:48:21.175000Z</time>
      </trkpt>
      <trkpt lat="45.715205669403076" lon="10.491535663604736">
        <ele>916.4795962191633</ele>
        <time>2017-11-22T11:48:22.117000Z</time>
      </trkpt>
      <trkpt lat="45.715104778430884" lon="10.491720574988095">
        <ele>921.3565801206149</ele>
        <time>2017-11-22T11:48:22.380000Z</time>
      </trkpt>
      <trkpt lat="45.715103913098574" lon="10.491722160950303">
        <ele>921.3641019131886</ele>
        <time>2017-11-22T11:48:22.382000Z</time>
      </trkpt>
      <trkpt lat="45.715103996917605" lon="10.491722077131271">
        <ele>921.3646490634177</ele>
        <time>2017-11-22T11:48:22.383000Z</time>
      </trkpt>
      <trkpt lat="45.71494817733765" lon="10.492007732391357">
        <ele>916.7193061252634</ele>
        <time>2017-11-22T11:48:22.789000Z</time>
      </trkpt>
      <trkpt lat="45.714497566223145" lon="10.492587089538574">
        <ele>927.2554443331518</ele>
        <time>2017-11-22T11:48:23.760000Z</time>
      </trkpt>
      <trkpt lat="45.71484088897705" lon="10.493059158325195">
        <ele>932.3925563056338</ele>
        <time>2017-11-22T11:48:24.523000Z</time>
      </trkpt>
      <trkpt lat="45.71503400802612" lon="10.493166446685791">
        <ele>941.799654353782</ele>
        <time>2017-11-22T11:48:24.855000Z</time>
      </trkpt>
      <trkpt lat="45.715227127075195" lon="10.49342393875122">
        <ele>948.1453038943579</ele>
        <time>2017-11-22T11:48:25.278000Z</time>
      </trkpt>
      <trkpt lat="45.715270042419434" lon="10.493574142456055">
        <ele>949.4390002474606</ele>
        <time>2017-11-22T11:48:25.460000Z</time>
      </trkpt>
      <trkpt lat="45.715248584747314" lon="10.493810176849365">
        <ele>951.3364011142094</ele>
        <time>2017-11-22T11:48:25.726000Z</time>
      </trkpt>
      <trkpt lat="45.71531295776367" lon="10.494003295898438">
        <ele>953.0422551155001</ele>
        <time>2017-11-22T11:48:25.966000Z</time>
      </trkpt>
      <trkpt lat="45.71537733078003" lon="10.494089126586914">
        <ele>954.0463592648442</ele>
        <time>2017-11-22T11:48:26.107000Z</time>
      </trkpt>
      <trkpt lat="45.715463161468506" lon="10.494132041931152">
        <ele>955.0842551791824</ele>
        <time>2017-11-22T11:48:26.253000Z</time>
      </trkpt>
      <trkpt lat="45.715506076812744" lon="10.494067668914795">
        <ele>955.7937353680408</ele>
        <time>2017-11-22T11:48:26.353000Z</time>
      </trkpt>
      <trkpt lat="45.71554899215698" lon="10.493659973144531">
        <ele>959.0803413134481</ele>
        <time>2017-11-22T11:48:26.815000Z</time>
      </trkpt>
      <trkpt lat="45.71544170379639" lon="10.493102073669434">
        <ele>962.3496563660832</ele>
        <time>2017-11-22T11:48:27.463000Z</time>
      </trkpt>
      <trkpt lat="45.715506076812744" lon="10.493080615997314">
        <ele>963.4297207094108</ele>
        <time>2017-11-22T11:48:27.569000Z</time>
      </trkpt>
      <trkpt lat="45.71565628051758" lon="10.493338108062744">
        <ele>970.591428180437</ele>
        <time>2017-11-22T11:48:27.945000Z</time>
      </trkpt>
      <trkpt lat="45.71584939956665" lon="10.49344539642334">
        <ele>984.9763823476798</ele>
        <time>2017-11-22T11:48:28.277000Z</time>
      </trkpt>
      <trkpt lat="45.7160210609436" lon="10.493745803833008">
        <ele>987.1871851888783</ele>
        <time>2017-11-22T11:48:28.712000Z</time>
      </trkpt>
      <trkpt lat="45.7160210609436" lon="10.494110584259033">
        <ele>989.2646736632537</ele>
        <time>2017-11-22T11:48:29.120000Z</time>
      </trkpt>
      <trkpt lat="45.71617126464844" lon="10.494840145111084">
        <ele>990.3677086096401</ele>
        <time>2017-11-22T11:48:29.971000Z</time>
      </trkpt>
      <trkpt lat="45.7161283493042" lon="10.495591163635254">
        <ele>991.796904983776</ele>
        <time>2017-11-22T11:48:30.814000Z</time>
      </trkpt>
      <trkpt lat="45.71619272232056" lon="10.495634078979492">
        <ele>991.8856331895082</ele>
        <time>2017-11-22T11:48:30.928000Z</time>
      </trkpt>
      <trkpt lat="45.71630001068115" lon="10.49518346786499">
        <ele>992.3010164069779</ele>
        <time>2017-11-22T11:48:31.461000Z</time>
      </trkpt>
      <trkpt lat="45.71638584136963" lon="10.49518346786499">
        <ele>992.7256555829622</ele>
        <time>2017-11-22T11:48:31.599000Z</time>
      </trkpt>
      <trkpt lat="45.71640729904175" lon="10.49593448638916">
        <ele>996.3220919479508</ele>
        <time>2017-11-22T11:48:32.440000Z</time>
      </trkpt>
      <trkpt lat="45.71653604507446" lon="10.496363639831543">
        <ele>997.9355751609586</ele>
        <time>2017-11-22T11:48:32.963000Z</time>
      </trkpt>
      <trkpt lat="45.716471672058105" lon="10.496664047241211">
        <ele>1000.1448811517521</ele>
        <time>2017-11-22T11:48:33.315000Z</time>
      </trkpt>
      <trkpt lat="45.716257095336914" lon="10.497007369995117">
        <ele>1004.3844967993397</ele>
        <time>2017-11-22T11:48:33.831000Z</time>
      </trkpt>
      <trkpt lat="45.71625681453066" lon="10.497008680424393">
        <ele>1004.39413420945</ele>
        <time>2017-11-22T11:48:33.832000Z</time>
      </trkpt>
      <trkpt lat="45.71625634096563" lon="10.49701089039445">
        <ele>1004.4103871950225</ele>
        <time>2017-11-22T11:48:33.834000Z</time>
      </trkpt>
      <trkpt lat="45.71625634096563" lon="10.497010722756386">
        <ele>1004.4115658121065</ele>
        <time>2017-11-22T11:48:33.834000Z</time>
      </trkpt>
      <trkpt lat="45.716214179992676" lon="10.49720048904419">
        <ele>1005.8116786095901</ele>
        <time>2017-11-22T11:48:34.057000Z</time>
      </trkpt>
      <trkpt lat="45.71632146835327" lon="10.497522354125977">
        <ele>1009.985947248702</ele>
        <time>2017-11-22T11:48:34.456000Z</time>
      </trkpt>
      <trkpt lat="45.717008113861084" lon="10.49818754196167">
        <ele>1026.0</ele>
        <time>2017-11-22T11:48:35.785000Z</time>
      </trkpt>
      <trkpt lat="45.71705102920532" lon="10.498080253601074">
        <ele>1026.4708106620592</ele>
        <time>2017-11-22T11:48:35.923000Z</time>
      </trkpt>
      <trkpt lat="45.716750621795654" lon="10.497608184814453">
        <ele>1028.902878387913</ele>
        <time>2017-11-22T11:48:36.638000Z</time>
      </trkpt>
      <trkpt lat="45.71679353713989" lon="10.497543811798096">
        <ele>1029.241781146294</ele>
        <time>2017-11-22T11:48:36.738000Z</time>
      </trkpt>
      <trkpt lat="45.71735143661499" lon="10.497908592224121">
        <ele>1032.5863538121455</ele>
        <time>2017-11-22T11:48:37.721000Z</time>
      </trkpt>
      <trkpt lat="45.71780204772949" lon="10.498530864715576">
        <ele>1049.7342838680272</ele>
        <time>2017-11-22T11:48:38.724000Z</time>
      </trkpt>
      <trkpt lat="45.717952251434326" lon="10.499367713928223">
        <ele>1051.6517172140022</ele>
        <time>2017-11-22T11:48:39.691000Z</time>
      </trkpt>
      <trkpt lat="45.718252658843994" lon="10.499775409698486">
        <ele>1056.0868351560382</ele>
        <time>2017-11-22T11:48:40.354000Z</time>
      </trkpt>
      <trkpt lat="45.71863889694214" lon="10.499882698059082">
        <ele>1067.6365363041498</ele>
        <time>2017-11-22T11:48:40.985000Z</time>
      </trkpt>
      <trkpt lat="45.718960762023926" lon="10.500118732452393">
        <ele>1065.0772000678664</ele>
        <time>2017-11-22T11:48:41.565000Z</time>
      </trkpt>
      <trkpt lat="45.71938991546631" lon="10.500869750976562">
        <ele>1068.236264505793</ele>
        <time>2017-11-22T11:48:42.651000Z</time>
      </trkpt>
      <trkpt lat="45.71993250168617" lon="10.501121955401771">
        <ele>1069.8327923417703</ele>
        <time>2017-11-22T11:48:43.566000Z</time>
      </trkpt>
      <trkpt lat="45.7199343200773" lon="10.501122800633311">
        <ele>1069.8475783621143</ele>
        <time>2017-11-22T11:48:43.569000Z</time>
      </trkpt>
      <trkpt lat="45.71993423625827" lon="10.501122800633311">
        <ele>1069.848226643276</ele>
        <time>2017-11-22T11:48:43.569000Z</time>
      </trkpt>
      <trkpt lat="45.72031259536743" lon="10.501298904418945">
        <ele>1076.2585271823143</ele>
        <time>2017-11-22T11:48:44.207000Z</time>
      </trkpt>
      <trkpt lat="45.72063446044922" lon="10.501320362091064">
        <ele>1078.750621812883</ele>
        <time>2017-11-22T11:48:44.724000Z</time>
      </trkpt>
      <trkpt lat="45.72129964828491" lon="10.501513481140137">
        <ele>1087.0</ele>
        <time>2017-11-22T11:48:45.812000Z</time>
      </trkpt>
      <trkpt lat="45.72164297103882" lon="10.501813888549805">
        <ele>1082.335806169689</ele>
        <time>2017-11-22T11:48:46.457000Z</time>
      </trkpt>
      <trkpt lat="45.72209358215332" lon="10.502350330352783">
        <ele>1090.9770055881709</ele>
        <time>2017-11-22T11:48:47.396000Z</time>
      </trkpt>
      <trkpt lat="45.72239398956299" lon="10.502500534057617">
        <ele>1080.5171129444573</ele>
        <time>2017-11-22T11:48:47.906000Z</time>
      </trkpt>
      <trkpt lat="45.72269448079169" lon="10.502564907073975">
        <ele>1085.1080287871148</ele>
        <time>2017-11-22T11:48:48.393000Z</time>
      </trkpt>
      <trkpt lat="45.722994804382324" lon="10.502564907073975">
        <ele>1084.0447043323786</ele>
        <time>2017-11-22T11:48:48.874000Z</time>
      </trkpt>
      <trkpt lat="45.72305917739868" lon="10.50267219543457">
        <ele>1084.045309529896</ele>
        <time>2017-11-22T11:48:49.032000Z</time>
      </trkpt>
      <trkpt lat="45.72314500808716" lon="10.503036975860596">
        <ele>1084.0469552492632</ele>
        <time>2017-11-22T11:48:49.463000Z</time>
      </trkpt>
      <trkpt lat="45.723445415496826" lon="10.50316572189331">
        <ele>1089.1227223434316</ele>
        <time>2017-11-22T11:48:49.966000Z</time>
      </trkpt>
      <trkpt lat="45.723509788513184" lon="10.503144264221191">
        <ele>1089.6305106581842</ele>
        <time>2017-11-22T11:48:50.072000Z</time>
      </trkpt>
      <trkpt lat="45.7236385345459" lon="10.50290822982788">
        <ele>1091.2371092086396</ele>
        <time>2017-11-22T11:48:50.407000Z</time>
      </trkpt>
      <trkpt lat="45.72389602661133" lon="10.502629280090332">
        <ele>1093.717467134093</ele>
        <time>2017-11-22T11:48:50.925000Z</time>
      </trkpt>
      <trkpt lat="45.72443246841431" lon="10.502629280090332">
        <ele>1102.1722473525926</ele>
        <time>2017-11-22T11:48:51.785000Z</time>
      </trkpt>
      <trkpt lat="45.72466850280762" lon="10.50269365310669">
        <ele>1102.9793689815053</ele>
        <time>2017-11-22T11:48:52.170000Z</time>
      </trkpt>
      <trkpt lat="45.724990367889404" lon="10.503036975860596">
        <ele>1104.3274023139254</ele>
        <time>2017-11-22T11:48:52.813000Z</time>
      </trkpt>
      <trkpt lat="45.72559118270874" lon="10.50344467163086">
        <ele>1105.1858148042702</ele>
        <time>2017-11-22T11:48:53.879000Z</time>
      </trkpt>
      <trkpt lat="45.72578430175781" lon="10.503809452056885">
        <ele>1104.9327631928536</ele>
        <time>2017-11-22T11:48:54.391000Z</time>
      </trkpt>
      <trkpt lat="45.72606325149536" lon="10.504045486450195">
        <ele>1099.3429073597472</ele>
        <time>2017-11-22T11:48:54.910000Z</time>
      </trkpt>
      <trkpt lat="45.727200508117676" lon="10.505847930908203">
        <ele>1102.0</ele>
        <time>2017-11-22T11:48:57.629000Z</time>
      </trkpt>
      <trkpt lat="45.72730779647827" lon="10.506212711334229">
        <ele>1101.8008193319413</ele>
        <time>2017-11-22T11:48:58.072000Z</time>
      </trkpt>
      <trkpt lat="45.727275512013634" lon="10.506474814609934">
        <ele>1101.499658814391</ele>
        <time>2017-11-22T11:48:58.370000Z</time>
      </trkpt>
      <trkpt lat="45.727275274693966" lon="10.506476741284132">
        <ele>1101.4974450367367</ele>
        <time>2017-11-22T11:48:58.372000Z</time>
      </trkpt>
      <trkpt lat="45.727275274693966" lon="10.506476322188973">
        <ele>1101.496970815913</ele>
        <time>2017-11-22T11:48:58.372000Z</time>
      </trkpt>
      <trkpt lat="45.7271146774292" lon="10.507779121398926">
        <ele>1099.0</ele>
        <time>2017-11-22T11:48:59.853000Z</time>
      </trkpt>
      <trkpt lat="45.72713613510132" lon="10.508787631988525">
        <ele>1097.3510229562005</ele>
        <time>2017-11-22T11:49:00.982000Z</time>
      </trkpt>
      <trkpt lat="45.72727261021754" lon="10.509106018337281">
        <ele>1096.6169874144177</ele>
        <time>2017-11-22T11:49:01.400000Z</time>
      </trkpt>
      <trkpt lat="45.72727334685624" lon="10.509107736870646">
        <ele>1096.6108130195153</ele>
        <time>2017-11-22T11:49:01.403000Z</time>
      </trkpt>
      <trkpt lat="45.727393543347716" lon="10.509002208709717">
        <ele>1095.9925077491832</ele>
        <time>2017-11-22T11:49:01.629000Z</time>
      </trkpt>
      <trkpt lat="45.7272733468569" lon="10.509107736871398">
        <ele>1095.3742021168289</ele>
        <time>2017-11-22T11:49:01.855000Z</time>
      </trkpt>
      <trkpt lat="45.72739362716675" lon="10.509388446807861">
        <ele>1097.365762738165</ele>
        <time>2017-11-22T11:49:02.224000Z</time>
      </trkpt>
      <trkpt lat="45.7276725769043" lon="10.509839057922363">
        <ele>1086.188460959542</ele>
        <time>2017-11-22T11:49:02.898000Z</time>
      </trkpt>
      <trkpt lat="45.72786569595337" lon="10.50990343093872">
        <ele>1086.9375767867034</ele>
        <time>2017-11-22T11:49:03.216000Z</time>
      </trkpt>
      <trkpt lat="45.72805881500244" lon="10.510075092315674">
        <ele>1092.4629153951248</ele>
        <time>2017-11-22T11:49:03.580000Z</time>
      </trkpt>
      <trkpt lat="45.72863817214966" lon="10.510761737823486">
        <ele>1091.0530208879002</ele>
        <time>2017-11-22T11:49:04.785000Z</time>
      </trkpt>
      <trkpt lat="45.728702545166016" lon="10.510890483856201">
        <ele>1096.6885570451334</ele>
        <time>2017-11-22T11:49:04.962000Z</time>
      </trkpt>
      <trkpt lat="45.728702545166016" lon="10.511083602905273">
        <ele>1097.8700471165923</ele>
        <time>2017-11-22T11:49:05.178000Z</time>
      </trkpt>
      <trkpt lat="45.72829484939575" lon="10.512456893920898">
        <ele>1118.0</ele>
        <time>2017-11-22T11:49:06.848000Z</time>
      </trkpt>
      <trkpt lat="45.72829484939575" lon="10.51292896270752">
        <ele>1109.4749374903802</ele>
        <time>2017-11-22T11:49:07.376000Z</time>
      </trkpt>
      <trkpt lat="45.728187561035156" lon="10.513594150543213">
        <ele>1105.4416424493645</ele>
        <time>2017-11-22T11:49:08.140000Z</time>
      </trkpt>
      <trkpt lat="45.72805881500244" lon="10.514023303985596">
        <ele>1103.5943480827027</ele>
        <time>2017-11-22T11:49:08.663000Z</time>
      </trkpt>
      <trkpt lat="45.72785107556002" lon="10.514438783601143">
        <ele>1100.2398773666023</ele>
        <time>2017-11-22T11:49:09.235000Z</time>
      </trkpt>
      <trkpt lat="45.72780132293701" lon="10.514538288116455">
        <ele>1099.7558270613408</ele>
        <time>2017-11-22T11:49:09.372000Z</time>
      </trkpt>
      <trkpt lat="45.727821942418814" lon="10.514613892883062">
        <ele>1099.434817449471</ele>
        <time>2017-11-22T11:49:09.463000Z</time>
      </trkpt>
      <trkpt lat="45.72786569595337" lon="10.514774322509766">
        <ele>1098.8783807595607</ele>
        <time>2017-11-22T11:49:09.656000Z</time>
      </trkpt>
      <trkpt lat="45.72793006896973" lon="10.515954494476318">
        <ele>1094.285465328323</ele>
        <time>2017-11-22T11:49:10.981000Z</time>
      </trkpt>
      <trkpt lat="45.72810173034668" lon="10.51642656326294">
        <ele>1092.8198056263473</ele>
        <time>2017-11-22T11:49:11.577000Z</time>
      </trkpt>
      <trkpt lat="45.728466510772705" lon="10.516834259033203">
        <ele>1085.1130003901087</ele>
        <time>2017-11-22T11:49:12.319000Z</time>
      </trkpt>
      <trkpt lat="45.72855234146118" lon="10.517091751098633">
        <ele>1083.6606606386833</ele>
        <time>2017-11-22T11:49:12.638000Z</time>
      </trkpt>
      <trkpt lat="45.72855234146118" lon="10.5173921585083">
        <ele>1082.1316439876525</ele>
        <time>2017-11-22T11:49:12.974000Z</time>
      </trkpt>
      <trkpt lat="45.72835922241211" lon="10.518293380737305">
        <ele>1075.0</ele>
        <time>2017-11-22T11:49:14.029000Z</time>
      </trkpt>
      <trkpt lat="45.728230476379395" lon="10.518314838409424">
        <ele>1082.5273673416805</ele>
        <time>2017-11-22T11:49:14.237000Z</time>
      </trkpt>
      <trkpt lat="45.7280158996582" lon="10.517714023590088">
        <ele>1086.8673413809895</ele>
        <time>2017-11-22T11:49:14.992000Z</time>
      </trkpt>
      <trkpt lat="45.72803735733032" lon="10.517435073852539">
        <ele>1090.3387121283502</ele>
        <time>2017-11-22T11:49:15.306000Z</time>
      </trkpt>
      <trkpt lat="45.7279965945889" lon="10.517353548301621">
        <ele>1090.9835902894165</ele>
        <time>2017-11-22T11:49:15.418000Z</time>
      </trkpt>
      <trkpt lat="45.727972984313965" lon="10.517306327819824">
        <ele>1091.357111095322</ele>
        <time>2017-11-22T11:49:15.483000Z</time>
      </trkpt>
      <trkpt lat="45.727973068133" lon="10.517306327819824">
        <ele>1091.357883252866</ele>
        <time>2017-11-22T11:49:15.483000Z</time>
      </trkpt>
      <trkpt lat="45.727902576327324" lon="10.517200632020831">
        <ele>1092.2979325394356</ele>
        <time>2017-11-22T11:49:15.647000Z</time>
      </trkpt>
      <trkpt lat="45.72790249250829" lon="10.517200464382768">
        <ele>1092.2981450787881</ele>
        <time>2017-11-22T11:49:15.647000Z</time>
      </trkpt>
      <trkpt lat="45.72775840759277" lon="10.516984462738037">
        <ele>1092.6060888430072</ele>
        <time>2017-11-22T11:49:15.981000Z</time>
      </trkpt>
      <trkpt lat="45.72762966156006" lon="10.516941547393799">
        <ele>1092.801266195417</ele>
        <time>2017-11-22T11:49:16.193000Z</time>
      </trkpt>
      <trkpt lat="45.727500915527344" lon="10.516984462738037">
        <ele>1092.9964435709328</ele>
        <time>2017-11-22T11:49:16.405000Z</time>
      </trkpt>
      <trkpt lat="45.727243423461914" lon="10.51668405532837">
        <ele>1087.820110269732</ele>
        <time>2017-11-22T11:49:16.937000Z</time>
      </trkpt>
      <trkpt lat="45.72726488113403" lon="10.515332221984863">
        <ele>1096.0016706675153</ele>
        <time>2017-11-22T11:49:18.450000Z</time>
      </trkpt>
      <trkpt lat="45.72705030441284" lon="10.51518201828003">
        <ele>1096.3235940803252</ele>
        <time>2017-11-22T11:49:18.833000Z</time>
      </trkpt>
      <trkpt lat="45.72679281234741" lon="10.51466703414917">
        <ele>1102.9196584597332</ele>
        <time>2017-11-22T11:49:19.542000Z</time>
      </trkpt>
      <trkpt lat="45.72662115097046" lon="10.514581203460693">
        <ele>1096.4980721691795</ele>
        <time>2017-11-22T11:49:19.833000Z</time>
      </trkpt>
      <trkpt lat="45.72591304779053" lon="10.514559745788574">
        <ele>1104.180999227782</ele>
        <time>2017-11-22T11:49:20.968000Z</time>
      </trkpt>
      <trkpt lat="45.72584867477417" lon="10.51440954208374">
        <ele>1104.0678258174419</ele>
        <time>2017-11-22T11:49:21.165000Z</time>
      </trkpt>
      <trkpt lat="45.72584867477417" lon="10.513958930969238">
        <ele>1113.7784813364121</ele>
        <time>2017-11-22T11:49:21.669000Z</time>
      </trkpt>
      <trkpt lat="45.725698471069336" lon="10.513722896575928">
        <ele>1092.8797618963329</ele>
        <time>2017-11-22T11:49:22.026000Z</time>
      </trkpt>
      <trkpt lat="45.72533369064331" lon="10.513358116149902">
        <ele>1079.114765931708</ele>
        <time>2017-11-22T11:49:22.739000Z</time>
      </trkpt>
      <trkpt lat="45.72516202926636" lon="10.513293743133545">
        <ele>1082.2910110155772</ele>
        <time>2017-11-22T11:49:23.023000Z</time>
      </trkpt>
      <trkpt lat="45.72479724884033" lon="10.51342248916626">
        <ele>1050.0</ele>
        <time>2017-11-22T11:49:23.625000Z</time>
      </trkpt>
      <trkpt lat="45.724732875823975" lon="10.513358116149902">
        <ele>1049.637963909788</ele>
        <time>2017-11-22T11:49:23.751000Z</time>
      </trkpt>
      <trkpt lat="45.724689960479736" lon="10.513100624084473">
        <ele>1058.1190536930237</ele>
        <time>2017-11-22T11:49:24.047000Z</time>
      </trkpt>
      <trkpt lat="45.72406768798828" lon="10.512714385986328">
        <ele>1044.3249687383172</ele>
        <time>2017-11-22T11:49:25.134000Z</time>
      </trkpt>
      <trkpt lat="45.72357416152954" lon="10.512328147888184">
        <ele>1041.0648815913073</ele>
        <time>2017-11-22T11:49:26.036000Z</time>
      </trkpt>
      <trkpt lat="45.72357416152954" lon="10.51215648651123">
        <ele>1040.0905366232907</ele>
        <time>2017-11-22T11:49:26.228000Z</time>
      </trkpt>
      <trkpt lat="45.723724365234375" lon="10.511791706085205">
        <ele>1037.6867416666673</ele>
        <time>2017-11-22T11:49:26.702000Z</time>
      </trkpt>
      <trkpt lat="45.723702907562256" lon="10.511341094970703">
        <ele>1029.789816036088</ele>
        <time>2017-11-22T11:49:27.207000Z</time>
      </trkpt>
      <trkpt lat="45.72389602661133" lon="10.510890483856201">
        <ele>1027.1453533115507</ele>
        <time>2017-11-22T11:49:27.799000Z</time>
      </trkpt>
      <trkpt lat="45.723981857299805" lon="10.510375499725342">
        <ele>1022.7275298322055</ele>
        <time>2017-11-22T11:49:28.392000Z</time>
      </trkpt>
      <trkpt lat="45.723745822906494" lon="10.51016092300415">
        <ele>1020.6467395839846</ele>
        <time>2017-11-22T11:49:28.840000Z</time>
      </trkpt>
      <trkpt lat="45.72355270385742" lon="10.509560108184814">
        <ele>1024.8764209486687</ele>
        <time>2017-11-22T11:49:29.580000Z</time>
      </trkpt>
      <trkpt lat="45.723230838775635" lon="10.509259700775146">
        <ele>1008.3503777430384</ele>
        <time>2017-11-22T11:49:30.196000Z</time>
      </trkpt>
      <trkpt lat="45.723209381103516" lon="10.509045124053955">
        <ele>1011.5708603071262</ele>
        <time>2017-11-22T11:49:30.439000Z</time>
      </trkpt>
      <trkpt lat="45.72329521179199" lon="10.508766174316406">
        <ele>1011.6223210757292</ele>
        <time>2017-11-22T11:49:30.780000Z</time>
      </trkpt>
      <trkpt lat="45.72316646575928" lon="10.508465766906738">
        <ele>1011.6818267692164</ele>
        <time>2017-11-22T11:49:31.175000Z</time>
      </trkpt>
      <trkpt lat="45.7231879234314" lon="10.508251190185547">
        <ele>1012.7184195896358</ele>
        <time>2017-11-22T11:49:31.418000Z</time>
      </trkpt>
      <trkpt lat="45.72305917739868" lon="10.507864952087402">
        <ele>1012.7906701520998</ele>
        <time>2017-11-22T11:49:31.897000Z</time>
      </trkpt>
      <trkpt lat="45.722994804382324" lon="10.507564544677734">
        <ele>1010.5102220141245</ele>
        <time>2017-11-22T11:49:32.249000Z</time>
      </trkpt>
      <trkpt lat="45.72278022766113" lon="10.507264137268066">
        <ele>1011.724593003116</ele>
        <time>2017-11-22T11:49:32.730000Z</time>
      </trkpt>
      <trkpt lat="45.7226300239563" lon="10.506963729858398">
        <ele>1009.0430651031805</ele>
        <time>2017-11-22T11:49:33.144000Z</time>
      </trkpt>
      <trkpt lat="45.7221794128418" lon="10.506706237792969">
        <ele>991.0</ele>
        <time>2017-11-22T11:49:33.922000Z</time>
      </trkpt>
      <trkpt lat="45.72205066680908" lon="10.506384372711182">
        <ele>996.1841017217474</ele>
        <time>2017-11-22T11:49:34.337000Z</time>
      </trkpt>
      <trkpt lat="45.722007835283875" lon="10.506105422973633">
        <ele>995.555895297489</ele>
        <time>2017-11-22T11:49:34.657000Z</time>
      </trkpt>
      <trkpt lat="45.72192192077637" lon="10.505805015563965">
        <ele>999.1751981967813</ele>
        <time>2017-11-22T11:49:35.020000Z</time>
      </trkpt>
      <trkpt lat="45.72177171707153" lon="10.505590438842773">
        <ele>998.5068608158834</ele>
        <time>2017-11-22T11:49:35.360000Z</time>
      </trkpt>
      <trkpt lat="45.7215142250061" lon="10.50567626953125">
        <ele>987.3406282156317</ele>
        <time>2017-11-22T11:49:35.784000Z</time>
      </trkpt>
      <trkpt lat="45.72136402130127" lon="10.505611896514893">
        <ele>986.8466870441965</ele>
        <time>2017-11-22T11:49:36.035000Z</time>
      </trkpt>
      <trkpt lat="45.72112798690796" lon="10.505397319793701">
        <ele>986.1577738022793</ele>
        <time>2017-11-22T11:49:36.483000Z</time>
      </trkpt>
      <trkpt lat="45.72080612182617" lon="10.504839420318604">
        <ele>977.9126289071697</ele>
        <time>2017-11-22T11:49:37.293000Z</time>
      </trkpt>
      <trkpt lat="45.72078928340371" lon="10.50467107264563">
        <ele>977.6200393228914</ele>
        <time>2017-11-22T11:49:37.483000Z</time>
      </trkpt>
      <trkpt lat="45.720769073814154" lon="10.504469024017453">
        <ele>977.7178251276664</ele>
        <time>2017-11-22T11:49:37.711000Z</time>
      </trkpt>
      <trkpt lat="45.720769073814154" lon="10.504468940198421">
        <ele>977.717865283678</ele>
        <time>2017-11-22T11:49:37.711000Z</time>
      </trkpt>
      <trkpt lat="45.720763206481934" lon="10.50441026687622">
        <ele>977.7462613766679</ele>
        <time>2017-11-22T11:49:37.777000Z</time>
      </trkpt>
      <trkpt lat="45.72052717208862" lon="10.504002571105957">
        <ele>986.0</ele>
        <time>2017-11-22T11:49:38.370000Z</time>
      </trkpt>
      <trkpt lat="45.72041988372803" lon="10.503959655761719">
        <ele>985.5225132476286</ele>
        <time>2017-11-22T11:49:38.549000Z</time>
      </trkpt>
      <trkpt lat="45.72007656097412" lon="10.504024028778076">
        <ele>984.0383084114897</ele>
        <time>2017-11-22T11:49:39.104000Z</time>
      </trkpt>
      <trkpt lat="45.719454288482666" lon="10.503873825073242">
        <ele>976.6666666666666</ele>
        <time>2017-11-22T11:49:40.116000Z</time>
      </trkpt>
      <trkpt lat="45.71911096572876" lon="10.504066944122314">
        <ele>972.2218220918154</ele>
        <time>2017-11-22T11:49:40.707000Z</time>
      </trkpt>
      <trkpt lat="45.718982219696045" lon="10.5039381980896">
        <ele>971.7486489500162</ele>
        <time>2017-11-22T11:49:40.959000Z</time>
      </trkpt>
      <trkpt lat="45.71857452392578" lon="10.503959655761719">
        <ele>968.1835072558248</ele>
        <time>2017-11-22T11:49:41.613000Z</time>
      </trkpt>
      <trkpt lat="45.718467235565186" lon="10.503766536712646">
        <ele>966.677741819949</ele>
        <time>2017-11-22T11:49:41.889000Z</time>
      </trkpt>
      <trkpt lat="45.71831703186035" lon="10.503637790679932">
        <ele>959.6393720713348</ele>
        <time>2017-11-22T11:49:42.170000Z</time>
      </trkpt>
      <trkpt lat="45.71810245513916" lon="10.503745079040527">
        <ele>956.1272147007991</ele>
        <time>2017-11-22T11:49:42.534000Z</time>
      </trkpt>
      <trkpt lat="45.71778059005737" lon="10.504302978515625">
        <ele>937.3187317867023</ele>
        <time>2017-11-22T11:49:43.344000Z</time>
      </trkpt>
      <trkpt lat="45.71754455566406" lon="10.504281520843506">
        <ele>933.6638861801912</ele>
        <time>2017-11-22T11:49:43.723000Z</time>
      </trkpt>
      <trkpt lat="45.717244148254395" lon="10.504474639892578">
        <ele>929.5754340443351</ele>
        <time>2017-11-22T11:49:44.251000Z</time>
      </trkpt>
      <trkpt lat="45.71681499481201" lon="10.504281520843506">
        <ele>928.7699545183822</ele>
        <time>2017-11-22T11:49:44.972000Z</time>
      </trkpt>
      <trkpt lat="45.71664333343506" lon="10.504088401794434">
        <ele>924.7818406943161</ele>
        <time>2017-11-22T11:49:45.322000Z</time>
      </trkpt>
      <trkpt lat="45.71662187576294" lon="10.503787994384766">
        <ele>926.4031490415209</ele>
        <time>2017-11-22T11:49:45.660000Z</time>
      </trkpt>
      <trkpt lat="45.716729164123535" lon="10.503509044647217">
        <ele>938.1130330015134</ele>
        <time>2017-11-22T11:49:46.016000Z</time>
      </trkpt>
      <trkpt lat="45.716729164123535" lon="10.503273010253906">
        <ele>943.4889038622991</ele>
        <time>2017-11-22T11:49:46.280000Z</time>
      </trkpt>
      <trkpt lat="45.71666479110718" lon="10.503079891204834">
        <ele>931.2563753294004</ele>
        <time>2017-11-22T11:49:46.520000Z</time>
      </trkpt>
      <trkpt lat="45.71593523025513" lon="10.502328872680664">
        <ele>936.187076466202</ele>
        <time>2017-11-22T11:49:47.960000Z</time>
      </trkpt>
      <trkpt lat="45.715720653533936" lon="10.502157211303711">
        <ele>919.001710346186</ele>
        <time>2017-11-22T11:49:48.354000Z</time>
      </trkpt>
      <trkpt lat="45.71565628051758" lon="10.501470565795898">
        <ele>924.1168523934335</ele>
        <time>2017-11-22T11:49:49.129000Z</time>
      </trkpt>
      <trkpt lat="45.71539878845215" lon="10.501105785369873">
        <ele>923.9534887446266</ele>
        <time>2017-11-22T11:49:49.710000Z</time>
      </trkpt>
      <trkpt lat="45.71507692337036" lon="10.50041913986206">
        <ele>927.3596749187999</ele>
        <time>2017-11-22T11:49:50.636000Z</time>
      </trkpt>
      <trkpt lat="45.71484088897705" lon="10.500462055206299">
        <ele>911.2265182979521</ele>
        <time>2017-11-22T11:49:51.017000Z</time>
      </trkpt>
      <trkpt lat="45.714712142944336" lon="10.50041913986206">
        <ele>908.0042861112806</ele>
        <time>2017-11-22T11:49:51.229000Z</time>
      </trkpt>
      <trkpt lat="45.7145619392395" lon="10.500290393829346">
        <ele>903.7372357621892</ele>
        <time>2017-11-22T11:49:51.510000Z</time>
      </trkpt>
      <trkpt lat="45.71444014780852" lon="10.500312537771514">
        <ele>901.2642285587749</ele>
        <time>2017-11-22T11:49:51.707000Z</time>
      </trkpt>
      <trkpt lat="45.71432590484619" lon="10.500333309173584">
        <ele>898.9444950884375</ele>
        <time>2017-11-22T11:49:51.892000Z</time>
      </trkpt>
      <trkpt lat="45.714307548478246" lon="10.500302631407976">
        <ele>898.3762505503959</ele>
        <time>2017-11-22T11:49:51.937000Z</time>
      </trkpt>
      <trkpt lat="45.714307464659214" lon="10.500302547588944">
        <ele>898.3741912819878</ele>
        <time>2017-11-22T11:49:51.937000Z</time>
      </trkpt>
      <trkpt lat="45.71413278579712" lon="10.500011444091797">
        <ele>884.3089303539024</ele>
        <time>2017-11-22T11:49:52.367000Z</time>
      </trkpt>
      <trkpt lat="45.71389675140381" lon="10.500075817108154">
        <ele>882.1723257802392</ele>
        <time>2017-11-22T11:49:52.752000Z</time>
      </trkpt>
      <trkpt lat="45.713768005371094" lon="10.49994707107544">
        <ele>894.1093470148817</ele>
        <time>2017-11-22T11:49:53.004000Z</time>
      </trkpt>
      <trkpt lat="45.71327447891235" lon="10.499818325042725">
        <ele>879.6485538827432</ele>
        <time>2017-11-22T11:49:53.808000Z</time>
      </trkpt>
      <trkpt lat="45.71316719055176" lon="10.499818325042725">
        <ele>878.694514307365</ele>
        <time>2017-11-22T11:49:53.980000Z</time>
      </trkpt>
      <trkpt lat="45.712952613830566" lon="10.500011444091797">
        <ele>865.1076112631787</ele>
        <time>2017-11-22T11:49:54.386000Z</time>
      </trkpt>
      <trkpt lat="45.71282386779785" lon="10.499989986419678">
        <ele>876.947664577309</ele>
        <time>2017-11-22T11:49:54.594000Z</time>
      </trkpt>
      <trkpt lat="45.71267366409302" lon="10.499861240386963">
        <ele>877.6320129234059</ele>
        <time>2017-11-22T11:49:54.875000Z</time>
      </trkpt>
      <trkpt lat="45.71263074874878" lon="10.499625205993652">
        <ele>877.7412175744879</ele>
        <time>2017-11-22T11:49:55.148000Z</time>
      </trkpt>
      <trkpt lat="45.71260929107666" lon="10.499324798583984">
        <ele>877.8764222648059</ele>
        <time>2017-11-22T11:49:55.486000Z</time>
      </trkpt>
      <trkpt lat="45.71269512176514" lon="10.499024391174316">
        <ele>883.0217491773677</ele>
        <time>2017-11-22T11:49:55.849000Z</time>
      </trkpt>
      <trkpt lat="45.71267366409302" lon="10.498831272125244">
        <ele>883.1093030183175</ele>
        <time>2017-11-22T11:49:56.068000Z</time>
      </trkpt>
      <trkpt lat="45.71235179901123" lon="10.49818754196167">
        <ele>877.463784229962</ele>
        <time>2017-11-22T11:49:56.954000Z</time>
      </trkpt>
      <trkpt lat="45.712244510650635" lon="10.498144626617432">
        <ele>875.2218442150119</ele>
        <time>2017-11-22T11:49:57.133000Z</time>
      </trkpt>
      <trkpt lat="45.711987018585205" lon="10.498316287994385">
        <ele>869.5055401740107</ele>
        <time>2017-11-22T11:49:57.588000Z</time>
      </trkpt>
      <trkpt lat="45.71183681488037" lon="10.498273372650146">
        <ele>866.4229502651732</ele>
        <time>2017-11-22T11:49:57.834000Z</time>
      </trkpt>
      <trkpt lat="45.7116436958313" lon="10.498123168945312">
        <ele>851.0</ele>
        <time>2017-11-22T11:49:58.186000Z</time>
      </trkpt>
      <trkpt lat="45.71104288101196" lon="10.498144626617432">
        <ele>842.4162511210549</ele>
        <time>2017-11-22T11:49:59.149000Z</time>
      </trkpt>
      <trkpt lat="45.71078538894653" lon="10.49842357635498">
        <ele>824.1382597567981</ele>
        <time>2017-11-22T11:49:59.667000Z</time>
      </trkpt>
      <trkpt lat="45.71057081222534" lon="10.498487949371338">
        <ele>821.0070650432934</ele>
        <time>2017-11-22T11:50:00.018000Z</time>
      </trkpt>
      <trkpt lat="45.7105278968811" lon="10.498573780059814">
        <ele>819.9542441993063</ele>
        <time>2017-11-22T11:50:00.136000Z</time>
      </trkpt>
      <trkpt lat="45.71057081222534" lon="10.498638153076172">
        <ele>819.0666314378022</ele>
        <time>2017-11-22T11:50:00.236000Z</time>
      </trkpt>
      <trkpt lat="45.71104288101196" lon="10.498380661010742">
        <ele>823.8434267501763</ele>
        <time>2017-11-22T11:50:01.046000Z</time>
      </trkpt>
      <trkpt lat="45.7111930847168" lon="10.498359203338623">
        <ele>823.876335397881</ele>
        <time>2017-11-22T11:50:01.288000Z</time>
      </trkpt>
      <trkpt lat="45.71132183074951" lon="10.498466491699219">
        <ele>823.9088096245478</ele>
        <time>2017-11-22T11:50:01.527000Z</time>
      </trkpt>
      <trkpt lat="45.71157932281494" lon="10.49893856048584">
        <ele>824.0</ele>
        <time>2017-11-22T11:50:02.198000Z</time>
      </trkpt>
      <trkpt lat="45.711772441864014" lon="10.499024391174316">
        <ele>831.439773719016</ele>
        <time>2017-11-22T11:50:02.522000Z</time>
      </trkpt>
      <trkpt lat="45.71181535720825" lon="10.499238967895508">
        <ele>825.7233163405349</ele>
        <time>2017-11-22T11:50:02.772000Z</time>
      </trkpt>
      <trkpt lat="45.711750984191895" lon="10.499517917633057">
        <ele>823.464063396589</ele>
        <time>2017-11-22T11:50:03.101000Z</time>
      </trkpt>
      <trkpt lat="45.71162223815918" lon="10.499753952026367">
        <ele>809.1607902002548</ele>
        <time>2017-11-22T11:50:03.436000Z</time>
      </trkpt>
      <trkpt lat="45.71160078048706" lon="10.50016164779663">
        <ele>805.0166842134337</ele>
        <time>2017-11-22T11:50:03.894000Z</time>
      </trkpt>
      <trkpt lat="45.7115605637007" lon="10.500247133281162">
        <ele>804.224011014473</ele>
        <time>2017-11-22T11:50:04.009000Z</time>
      </trkpt>
      <trkpt lat="45.71148066781461" lon="10.500416960567236">
        <ele>802.6492665788929</ele>
        <time>2017-11-22T11:50:04.238000Z</time>
      </trkpt>
      <trkpt lat="45.71148058399558" lon="10.5004171282053">
        <ele>802.6486105389703</ele>
        <time>2017-11-22T11:50:04.238000Z</time>
      </trkpt>
      <trkpt lat="45.71142911911011" lon="10.500526428222656">
        <ele>802.2291559478175</ele>
        <time>2017-11-22T11:50:04.386000Z</time>
      </trkpt>
      <trkpt lat="45.71140766143799" lon="10.500977039337158">
        <ele>798.4587240768345</ele>
        <time>2017-11-22T11:50:04.892000Z</time>
      </trkpt>
      <trkpt lat="45.71138620376587" lon="10.501041412353516">
        <ele>798.2317589279616</ele>
        <time>2017-11-22T11:50:04.972000Z</time>
      </trkpt>
      <trkpt lat="45.71132183074951" lon="10.5009126663208">
        <ele>797.7279197633766</ele>
        <time>2017-11-22T11:50:05.149000Z</time>
      </trkpt>
      <trkpt lat="45.71138620376587" lon="10.49966812133789">
        <ele>801.1484624816258</ele>
        <time>2017-11-22T11:50:06.546000Z</time>
      </trkpt>
      <trkpt lat="45.71106433868408" lon="10.499539375305176">
        <ele>799.8119918737935</ele>
        <time>2017-11-22T11:50:07.082000Z</time>
      </trkpt>
      <trkpt lat="45.71087121963501" lon="10.499582290649414">
        <ele>799.0304270115421</ele>
        <time>2017-11-22T11:50:07.395000Z</time>
      </trkpt>
      <trkpt lat="45.710484981536865" lon="10.499560832977295">
        <ele>792.8179546695083</ele>
        <time>2017-11-22T11:50:08.015000Z</time>
      </trkpt>
      <trkpt lat="45.71003437042236" lon="10.499475002288818">
        <ele>791.0</ele>
        <time>2017-11-22T11:50:08.744000Z</time>
      </trkpt>
      <trkpt lat="45.70992708206177" lon="10.499389171600342">
        <ele>784.0545997152458</ele>
        <time>2017-11-22T11:50:08.941000Z</time>
      </trkpt>
      <trkpt lat="45.709776878356934" lon="10.499067306518555">
        <ele>788.90847396453</ele>
        <time>2017-11-22T11:50:09.374000Z</time>
      </trkpt>
      <trkpt lat="45.709476470947266" lon="10.49917459487915">
        <ele>778.0202797319165</ele>
        <time>2017-11-22T11:50:09.870000Z</time>
      </trkpt>
      <trkpt lat="45.70915460586548" lon="10.499024391174316">
        <ele>775.1645504260023</ele>
        <time>2017-11-22T11:50:10.413000Z</time>
      </trkpt>
      <trkpt lat="45.70889711380005" lon="10.499110221862793">
        <ele>770.8493616124174</ele>
        <time>2017-11-22T11:50:10.837000Z</time>
      </trkpt>
      <trkpt lat="45.708703351825775" lon="10.499456939698439">
        <ele>758.787810930804</ele>
        <time>2017-11-22T11:50:11.334000Z</time>
      </trkpt>
      <trkpt lat="45.70861414074898" lon="10.499616572633386">
        <ele>756.4574035003225</ele>
        <time>2017-11-22T11:50:11.563000Z</time>
      </trkpt>
      <trkpt lat="45.708489418029785" lon="10.499839782714844">
        <ele>753.1990472355334</ele>
        <time>2017-11-22T11:50:11.883000Z</time>
      </trkpt>
      <trkpt lat="45.70833921432495" lon="10.499989986419678">
        <ele>750.2087967304806</ele>
        <time>2017-11-22T11:50:12.177000Z</time>
      </trkpt>
      <trkpt lat="45.708017349243164" lon="10.500097274780273">
        <ele>737.6133274437904</ele>
        <time>2017-11-22T11:50:12.707000Z</time>
      </trkpt>
      <trkpt lat="45.707995891571045" lon="10.500032901763916">
        <ele>737.6430521368947</ele>
        <time>2017-11-22T11:50:12.787000Z</time>
      </trkpt>
      <trkpt lat="45.70810317993164" lon="10.499711036682129">
        <ele>741.458342036752</ele>
        <time>2017-11-22T11:50:13.186000Z</time>
      </trkpt>
      <trkpt lat="45.70814609527588" lon="10.499131679534912">
        <ele>741.0344567007228</ele>
        <time>2017-11-22T11:50:13.838000Z</time>
      </trkpt>
      <trkpt lat="45.70784568786621" lon="10.498809814453125">
        <ele>741.2583441787498</ele>
        <time>2017-11-22T11:50:14.439000Z</time>
      </trkpt>
      <trkpt lat="45.70778131484985" lon="10.498852729797363">
        <ele>740.6608508147656</ele>
        <time>2017-11-22T11:50:14.553000Z</time>
      </trkpt>
      <trkpt lat="45.70780277252197" lon="10.49891710281372">
        <ele>740.2417084938787</ele>
        <time>2017-11-22T11:50:14.633000Z</time>
      </trkpt>
      <trkpt lat="45.707974433898926" lon="10.499088764190674">
        <ele>738.479919538453</ele>
        <time>2017-11-22T11:50:14.969000Z</time>
      </trkpt>
      <trkpt lat="45.70803880691528" lon="10.499238967895508">
        <ele>738.1110240351777</ele>
        <time>2017-11-22T11:50:15.166000Z</time>
      </trkpt>
      <trkpt lat="45.707974433898926" lon="10.499625205993652">
        <ele>735.7777359344283</ele>
        <time>2017-11-22T11:50:15.611000Z</time>
      </trkpt>
      <trkpt lat="45.70793151855469" lon="10.49968957901001">
        <ele>734.8295227550719</ele>
        <time>2017-11-22T11:50:15.711000Z</time>
      </trkpt>
      <trkpt lat="45.70754528045654" lon="10.49994707107544">
        <ele>728.329330473473</ele>
        <time>2017-11-22T11:50:16.394000Z</time>
      </trkpt>
      <trkpt lat="45.70707321166992" lon="10.50069808959961">
        <ele>704.8968967193673</ele>
        <time>2017-11-22T11:50:17.525000Z</time>
      </trkpt>
      <trkpt lat="45.70709466934204" lon="10.501019954681396">
        <ele>701.0254470618256</ele>
        <time>2017-11-22T11:50:17.887000Z</time>
      </trkpt>
      <trkpt lat="45.70692300796509" lon="10.501835346221924">
        <ele>684.1614581268224</ele>
        <time>2017-11-22T11:50:18.840000Z</time>
      </trkpt>
      <trkpt lat="45.7070517539978" lon="10.501835346221924">
        <ele>683.6372855957696</ele>
        <time>2017-11-22T11:50:19.046000Z</time>
      </trkpt>
      <trkpt lat="45.70767402648926" lon="10.501234531402588">
        <ele>695.4514554610636</ele>
        <time>2017-11-22T11:50:20.249000Z</time>
      </trkpt>
      <trkpt lat="45.7080602645874" lon="10.501084327697754">
        <ele>698.3742693956755</ele>
        <time>2017-11-22T11:50:20.891000Z</time>
      </trkpt>
      <trkpt lat="45.708231925964355" lon="10.501234531402588">
        <ele>698.74096889591</ele>
        <time>2017-11-22T11:50:21.214000Z</time>
      </trkpt>
      <trkpt lat="45.70870399475098" lon="10.50117015838623">
        <ele>698.9386978906587</ele>
        <time>2017-11-22T11:50:21.974000Z</time>
      </trkpt>
      <trkpt lat="45.708768367767334" lon="10.501213073730469">
        <ele>699.0681315484293</ele>
        <time>2017-11-22T11:50:22.088000Z</time>
      </trkpt>
      <trkpt lat="45.70887565612793" lon="10.501492023468018">
        <ele>699.4735007426997</ele>
        <time>2017-11-22T11:50:22.445000Z</time>
      </trkpt>
      <trkpt lat="45.70915460586548" lon="10.501599311828613">
        <ele>700.0</ele>
        <time>2017-11-22T11:50:22.908000Z</time>
      </trkpt>
      <trkpt lat="45.7091760635376" lon="10.501706600189209">
        <ele>701.6653731197302</ele>
        <time>2017-11-22T11:50:23.033000Z</time>
      </trkpt>
      <trkpt lat="45.70887565612793" lon="10.502135753631592">
        <ele>684.3985478786008</ele>
        <time>2017-11-22T11:50:23.713000Z</time>
      </trkpt>
      <trkpt lat="45.70881128311157" lon="10.502479076385498">
        <ele>680.1473648443982</ele>
        <time>2017-11-22T11:50:24.111000Z</time>
      </trkpt>
      <trkpt lat="45.708253383636475" lon="10.503015518188477">
        <ele>660.6390556169999</ele>
        <time>2017-11-22T11:50:25.188000Z</time>
      </trkpt>
      <trkpt lat="45.70812463760376" lon="10.503273010253906">
        <ele>660.0328771222854</ele>
        <time>2017-11-22T11:50:25.543000Z</time>
      </trkpt>
      <trkpt lat="45.708167552948" lon="10.503337383270264">
        <ele>655.1958590868558</ele>
        <time>2017-11-22T11:50:25.643000Z</time>
      </trkpt>
      <trkpt lat="45.70863962173462" lon="10.503358840942383">
        <ele>659.2345859518849</ele>
        <time>2017-11-22T11:50:26.400000Z</time>
      </trkpt>
      <trkpt lat="45.7091760635376" lon="10.503509044647217">
        <ele>663.0940240568597</ele>
        <time>2017-11-22T11:50:27.276000Z</time>
      </trkpt>
      <trkpt lat="45.70934772491455" lon="10.503616333007812">
        <ele>661.2498980071624</ele>
        <time>2017-11-22T11:50:27.576000Z</time>
      </trkpt>
      <trkpt lat="45.70936918258667" lon="10.50368070602417">
        <ele>660.7594675209698</ele>
        <time>2017-11-22T11:50:27.656000Z</time>
      </trkpt>
      <trkpt lat="45.70934772491455" lon="10.503852367401123">
        <ele>659.5604647010022</ele>
        <time>2017-11-22T11:50:27.851000Z</time>
      </trkpt>
      <trkpt lat="45.709261894226074" lon="10.50391674041748">
        <ele>658.6064966193031</ele>
        <time>2017-11-22T11:50:28.006000Z</time>
      </trkpt>
      <trkpt lat="45.70887565612793" lon="10.503959655761719">
        <ele>650.4588535172956</ele>
        <time>2017-11-22T11:50:28.627000Z</time>
      </trkpt>
      <trkpt lat="45.708725452423096" lon="10.504152774810791">
        <ele>647.6865329155235</ele>
        <time>2017-11-22T11:50:28.951000Z</time>
      </trkpt>
      <trkpt lat="45.707459449768066" lon="10.504646301269531">
        <ele>616.0</ele>
        <time>2017-11-22T11:50:31.054000Z</time>
      </trkpt>
      <trkpt lat="45.70713758468628" lon="10.504860877990723">
        <ele>613.594346488707</ele>
        <time>2017-11-22T11:50:31.623000Z</time>
      </trkpt>
      <trkpt lat="45.706751346588135" lon="10.505204200744629">
        <ele>618.1807319325144</ele>
        <time>2017-11-22T11:50:32.352000Z</time>
      </trkpt>
      <trkpt lat="45.70647782163553" lon="10.505563202881522">
        <ele>604.0</ele>
        <time>2017-11-22T11:50:32.947000Z</time>
      </trkpt>
      <trkpt lat="45.70640802383423" lon="10.50565481185913">
        <ele>603.9716558275887</ele>
        <time>2017-11-22T11:50:33.099000Z</time>
      </trkpt>
      <trkpt lat="45.706369215622544" lon="10.505696050822735">
        <ele>603.9571885109299</ele>
        <time>2017-11-22T11:50:33.176000Z</time>
      </trkpt>
      <trkpt lat="45.70636904798448" lon="10.505696134641767">
        <ele>603.9571353543598</ele>
        <time>2017-11-22T11:50:33.176000Z</time>
      </trkpt>
      <trkpt lat="45.70606470108032" lon="10.506019592285156">
        <ele>608.5103383152167</ele>
        <time>2017-11-22T11:50:33.784000Z</time>
      </trkpt>
      <trkpt lat="45.70585012435913" lon="10.506362915039062">
        <ele>608.414015439782</ele>
        <time>2017-11-22T11:50:34.300000Z</time>
      </trkpt>
      <trkpt lat="45.70578575134277" lon="10.506620407104492">
        <ele>599.3568384696006</ele>
        <time>2017-11-22T11:50:34.606000Z</time>
      </trkpt>
      <trkpt lat="45.705721378326416" lon="10.50668478012085">
        <ele>603.3333333333334</ele>
        <time>2017-11-22T11:50:34.732000Z</time>
      </trkpt>
      <trkpt lat="45.70587158203125" lon="10.50593376159668">
        <ele>608.477377285386</ele>
        <time>2017-11-22T11:50:35.607000Z</time>
      </trkpt>
      <trkpt lat="45.7061505317688" lon="10.505204200744629">
        <ele>603.9640734815067</ele>
        <time>2017-11-22T11:50:36.538000Z</time>
      </trkpt>
      <trkpt lat="45.70608615875244" lon="10.505032539367676">
        <ele>603.1895312207381</ele>
        <time>2017-11-22T11:50:36.756000Z</time>
      </trkpt>
      <trkpt lat="45.706000328063965" lon="10.505075454711914">
        <ele>602.3858364726026</ele>
        <time>2017-11-22T11:50:36.902000Z</time>
      </trkpt>
      <trkpt lat="45.70589303970337" lon="10.50544023513794">
        <ele>599.9422621184477</ele>
        <time>2017-11-22T11:50:37.345000Z</time>
      </trkpt>
      <trkpt lat="45.705313766375184" lon="10.506255626678467">
        <ele>588.4280825850261</ele>
        <time>2017-11-22T11:50:38.647000Z</time>
      </trkpt>
      <trkpt lat="45.70505619049072" lon="10.506534576416016">
        <ele>585.5731369542347</ele>
        <time>2017-11-22T11:50:39.165000Z</time>
      </trkpt>
      <trkpt lat="45.704810856149514" lon="10.506593533293982">
        <ele>574.144367212995</ele>
        <time>2017-11-22T11:50:39.564000Z</time>
      </trkpt>
      <trkpt lat="45.70466903038323" lon="10.50662761554122">
        <ele>572.5476183231262</ele>
        <time>2017-11-22T11:50:39.795000Z</time>
      </trkpt>
      <trkpt lat="45.7046689465642" lon="10.50662761554122">
        <ele>572.546687659299</ele>
        <time>2017-11-22T11:50:39.795000Z</time>
      </trkpt>
      <trkpt lat="45.704519748687744" lon="10.50666332244873">
        <ele>570.8671278246112</ele>
        <time>2017-11-22T11:50:40.038000Z</time>
      </trkpt>
      <trkpt lat="45.704262256622314" lon="10.507264137268066">
        <ele>571.0452770961183</ele>
        <time>2017-11-22T11:50:40.827000Z</time>
      </trkpt>
      <trkpt lat="45.70389747619629" lon="10.5074143409729">
        <ele>561.5922011398407</ele>
        <time>2017-11-22T11:50:41.435000Z</time>
      </trkpt>
      <trkpt lat="45.70387601852417" lon="10.507478713989258">
        <ele>561.6202330695509</ele>
        <time>2017-11-22T11:50:41.515000Z</time>
      </trkpt>
      <trkpt lat="45.70389747619629" lon="10.507586002349854">
        <ele>565.3307579569195</ele>
        <time>2017-11-22T11:50:41.640000Z</time>
      </trkpt>
      <trkpt lat="45.70409059524536" lon="10.507757663726807">
        <ele>565.4586677109747</ele>
        <time>2017-11-22T11:50:42.004000Z</time>
      </trkpt>
      <trkpt lat="45.70434808731079" lon="10.50816535949707">
        <ele>574.3413565747213</ele>
        <time>2017-11-22T11:50:42.619000Z</time>
      </trkpt>
      <trkpt lat="45.70439100265503" lon="10.508272647857666">
        <ele>574.3899458375801</ele>
        <time>2017-11-22T11:50:42.757000Z</time>
      </trkpt>
      <trkpt lat="45.70434808731079" lon="10.508358478546143">
        <ele>574.0980966783109</ele>
        <time>2017-11-22T11:50:42.875000Z</time>
      </trkpt>
      <trkpt lat="45.70409059524536" lon="10.508036613464355">
        <ele>561.4896375213922</ele>
        <time>2017-11-22T11:50:43.423000Z</time>
      </trkpt>
      <trkpt lat="45.70389747619629" lon="10.507950782775879">
        <ele>558.4580255536633</ele>
        <time>2017-11-22T11:50:43.747000Z</time>
      </trkpt>
      <trkpt lat="45.70342540740967" lon="10.507864952087402">
        <ele>551.3236736325954</ele>
        <time>2017-11-22T11:50:44.510000Z</time>
      </trkpt>
      <trkpt lat="45.70308208465576" lon="10.507886409759521">
        <ele>539.171482380812</ele>
        <time>2017-11-22T11:50:45.061000Z</time>
      </trkpt>
      <trkpt lat="45.70286750793457" lon="10.507714748382568">
        <ele>538.9061090394468</ele>
        <time>2017-11-22T11:50:45.455000Z</time>
      </trkpt>
      <trkpt lat="45.70286750793457" lon="10.507586002349854">
        <ele>538.8090338347652</ele>
        <time>2017-11-22T11:50:45.599000Z</time>
      </trkpt>
      <trkpt lat="45.70293188095093" lon="10.507006645202637">
        <ele>535.0333684289561</ele>
        <time>2017-11-22T11:50:46.256000Z</time>
      </trkpt>
      <trkpt lat="45.70299684939203" lon="10.506926672209485">
        <ele>534.9408689853677</ele>
        <time>2017-11-22T11:50:46.393000Z</time>
      </trkpt>
      <trkpt lat="45.703105721622705" lon="10.506792655214667">
        <ele>534.7858609464059</ele>
        <time>2017-11-22T11:50:46.623000Z</time>
      </trkpt>
      <trkpt lat="45.70310580544174" lon="10.506792571395636">
        <ele>534.7857505671005</ele>
        <time>2017-11-22T11:50:46.623000Z</time>
      </trkpt>
      <trkpt lat="45.70321083068848" lon="10.50666332244873">
        <ele>536.9695687642342</ele>
        <time>2017-11-22T11:50:46.845000Z</time>
      </trkpt>
      <trkpt lat="45.70333957672119" lon="10.506598949432373">
        <ele>541.1800255066682</ele>
        <time>2017-11-22T11:50:47.064000Z</time>
      </trkpt>
      <trkpt lat="45.70333957672119" lon="10.506491661071777">
        <ele>540.3532491988193</ele>
        <time>2017-11-22T11:50:47.184000Z</time>
      </trkpt>
      <trkpt lat="45.7025671005249" lon="10.506749153137207">
        <ele>524.9348741594458</ele>
        <time>2017-11-22T11:50:48.456000Z</time>
      </trkpt>
      <trkpt lat="45.70237398147583" lon="10.507221221923828">
        <ele>518.0521624687792</ele>
        <time>2017-11-22T11:50:49.069000Z</time>
      </trkpt>
      <trkpt lat="45.702266693115234" lon="10.507285594940186">
        <ele>516.9799297942006</ele>
        <time>2017-11-22T11:50:49.255000Z</time>
      </trkpt>
      <trkpt lat="45.701966285705566" lon="10.507349967956543">
        <ele>514.1801155776469</ele>
        <time>2017-11-22T11:50:49.742000Z</time>
      </trkpt>
      <trkpt lat="45.70170879364014" lon="10.50767183303833">
        <ele>508.3628755455315</ele>
        <time>2017-11-22T11:50:50.290000Z</time>
      </trkpt>
      <trkpt lat="45.70160150527954" lon="10.508122444152832">
        <ele>504.309083576167</ele>
        <time>2017-11-22T11:50:50.823000Z</time>
      </trkpt>
      <trkpt lat="45.701258182525635" lon="10.508358478546143">
        <ele>496.8596324459825</ele>
        <time>2017-11-22T11:50:51.434000Z</time>
      </trkpt>
      <trkpt lat="45.70095777511597" lon="10.50840139389038">
        <ele>498.456916462748</ele>
        <time>2017-11-22T11:50:51.918000Z</time>
      </trkpt>
      <trkpt lat="45.700721740722656" lon="10.508358478546143">
        <ele>496.71575318561577</ele>
        <time>2017-11-22T11:50:52.299000Z</time>
      </trkpt>
      <trkpt lat="45.700228214263916" lon="10.508100986480713">
        <ele>510.8281794264653</ele>
        <time>2017-11-22T11:50:53.141000Z</time>
      </trkpt>
      <trkpt lat="45.69982051849365" lon="10.507800579071045">
        <ele>494.28324794124757</ele>
        <time>2017-11-22T11:50:53.876000Z</time>
      </trkpt>
      <trkpt lat="45.69956302642822" lon="10.507736206054688">
        <ele>490.3058214238051</ele>
        <time>2017-11-22T11:50:54.295000Z</time>
      </trkpt>
      <trkpt lat="45.699284076690674" lon="10.507457256317139">
        <ele>493.4617183813848</ele>
        <time>2017-11-22T11:50:54.840000Z</time>
      </trkpt>
      <trkpt lat="45.69915533065796" lon="10.507500171661377">
        <ele>473.11692069855803</ele>
        <time>2017-11-22T11:50:55.052000Z</time>
      </trkpt>
      <trkpt lat="45.69913387298584" lon="10.507650375366211">
        <ele>473.1339814889832</ele>
        <time>2017-11-22T11:50:55.224000Z</time>
      </trkpt>
      <trkpt lat="45.69939136505127" lon="10.507886409759521">
        <ele>483.1826954534888</ele>
        <time>2017-11-22T11:50:55.714000Z</time>
      </trkpt>
      <trkpt lat="45.69934844970703" lon="10.507972240447998">
        <ele>483.19444195758496</ele>
        <time>2017-11-22T11:50:55.832000Z</time>
      </trkpt>
      <trkpt lat="45.699241161346436" lon="10.507950782775879">
        <ele>483.2117021986954</ele>
        <time>2017-11-22T11:50:56.006000Z</time>
      </trkpt>
      <trkpt lat="45.69866180419922" lon="10.507564544677734">
        <ele>473.31352725234893</ele>
        <time>2017-11-22T11:50:57.031000Z</time>
      </trkpt>
      <trkpt lat="45.69857597351074" lon="10.50743579864502">
        <ele>483.52163882447013</ele>
        <time>2017-11-22T11:50:57.230000Z</time>
      </trkpt>
      <trkpt lat="45.69846868515015" lon="10.507221221923828">
        <ele>482.47792825957714</ele>
        <time>2017-11-22T11:50:57.525000Z</time>
      </trkpt>
      <trkpt lat="45.69814682006836" lon="10.506985187530518">
        <ele>473.43013317875534</ele>
        <time>2017-11-22T11:50:58.105000Z</time>
      </trkpt>
      <trkpt lat="45.69739580154419" lon="10.506834983825684">
        <ele>464.1360340275899</ele>
        <time>2017-11-22T11:50:59.321000Z</time>
      </trkpt>
      <trkpt lat="45.6970739364624" lon="10.507221221923828">
        <ele>462.0628015025706</ele>
        <time>2017-11-22T11:50:59.994000Z</time>
      </trkpt>
      <trkpt lat="45.69668769836426" lon="10.507285594940186">
        <ele>460.1432012976664</ele>
        <time>2017-11-22T11:51:00.617000Z</time>
      </trkpt>
      <trkpt lat="45.6960654258728" lon="10.506813526153564">
        <ele>456.0</ele>
        <time>2017-11-22T11:51:01.746000Z</time>
      </trkpt>
      <trkpt lat="45.695765018463135" lon="10.506813526153564">
        <ele>457.44658396087556</ele>
        <time>2017-11-22T11:51:02.228000Z</time>
      </trkpt>
      <trkpt lat="45.695486068725586" lon="10.506641864776611">
        <ele>474.91938571130555</ele>
        <time>2017-11-22T11:51:02.715000Z</time>
      </trkpt>
      <trkpt lat="45.694992542266846" lon="10.506620407104492">
        <ele>470.27395997789955</ele>
        <time>2017-11-22T11:51:03.507000Z</time>
      </trkpt>
      <trkpt lat="45.694499015808105" lon="10.506362915039062">
        <ele>470.0417932262122</ele>
        <time>2017-11-22T11:51:04.349000Z</time>
      </trkpt>
      <trkpt lat="45.69368362426758" lon="10.5064058303833">
        <ele>455.07163135217206</ele>
        <time>2017-11-22T11:51:05.657000Z</time>
      </trkpt>
      <trkpt lat="45.69291114807129" lon="10.506727695465088">
        <ele>425.9026530850654</ele>
        <time>2017-11-22T11:51:06.947000Z</time>
      </trkpt>
      <trkpt lat="45.692739486694336" lon="10.506834983825684">
        <ele>421.9830491140653</ele>
        <time>2017-11-22T11:51:07.247000Z</time>
      </trkpt>
      <trkpt lat="45.6925645857521" lon="10.5070565429119">
        <ele>419.39230677519777</ele>
        <time>2017-11-22T11:51:07.621000Z</time>
      </trkpt>
      <trkpt lat="45.692457016557455" lon="10.507192807272077">
        <ele>416.9981974618279</ele>
        <time>2017-11-22T11:51:07.851000Z</time>
      </trkpt>
      <trkpt lat="45.69245693273842" lon="10.507192891091108">
        <ele>416.99791692419916</ele>
        <time>2017-11-22T11:51:07.851000Z</time>
      </trkpt>
      <trkpt lat="45.69241762161255" lon="10.507242679595947">
        <ele>416.85390152386987</ele>
        <time>2017-11-22T11:51:07.935000Z</time>
      </trkpt>
      <trkpt lat="45.692245960235596" lon="10.507328510284424">
        <ele>416.35498894253175</ele>
        <time>2017-11-22T11:51:08.226000Z</time>
      </trkpt>
      <trkpt lat="45.69190263748169" lon="10.507264137268066">
        <ele>415.40491981285385</ele>
        <time>2017-11-22T11:51:08.781000Z</time>
      </trkpt>
      <trkpt lat="45.691580856218934" lon="10.507307052612305">
        <ele>413.18484600405935</ele>
        <time>2017-11-22T11:51:09.299000Z</time>
      </trkpt>
      <trkpt lat="45.69147356785834" lon="10.507221221923828">
        <ele>413.45018443581404</ele>
        <time>2017-11-22T11:51:09.496000Z</time>
      </trkpt>
      <trkpt lat="45.69046497344971" lon="10.506341457366943">
        <ele>419.0</ele>
        <time>2017-11-22T11:51:11.389000Z</time>
      </trkpt>
      <trkpt lat="45.68984270095825" lon="10.505139827728271">
        <ele>430.4289973718523</ele>
        <time>2017-11-22T11:51:13.064000Z</time>
      </trkpt>
      <trkpt lat="45.68939208984375" lon="10.505139827728271">
        <ele>433.2015144230968</ele>
        <time>2017-11-22T11:51:13.786000Z</time>
      </trkpt>
      <trkpt lat="45.689241886138916" lon="10.505247116088867">
        <ele>433.7857203526259</ele>
        <time>2017-11-22T11:51:14.055000Z</time>
      </trkpt>
      <trkpt lat="45.68913459777832" lon="10.505590438842773">
        <ele>435.3667619533133</ele>
        <time>2017-11-22T11:51:14.476000Z</time>
      </trkpt>
      <trkpt lat="45.689048767089844" lon="10.505633354187012">
        <ele>435.6831702903315</ele>
        <time>2017-11-22T11:51:14.622000Z</time>
      </trkpt>
      <trkpt lat="45.68857669830322" lon="10.505611896514893">
        <ele>435.0291223070421</ele>
        <time>2017-11-22T11:51:15.379000Z</time>
      </trkpt>
      <trkpt lat="45.68771839141846" lon="10.505783557891846">
        <ele>431.19346177723173</ele>
        <time>2017-11-22T11:51:16.768000Z</time>
      </trkpt>
      <trkpt lat="45.68737506866455" lon="10.505783557891846">
        <ele>425.87523879301835</ele>
        <time>2017-11-22T11:51:17.318000Z</time>
      </trkpt>
      <trkpt lat="45.687053203582764" lon="10.505461692810059">
        <ele>424.22605606625444</ele>
        <time>2017-11-22T11:51:17.947000Z</time>
      </trkpt>
      <trkpt lat="45.68606615066528" lon="10.50518274307251">
        <ele>417.0</ele>
        <time>2017-11-22T11:51:19.560000Z</time>
      </trkpt>
      <trkpt lat="45.68533658981323" lon="10.505225658416748">
        <ele>405.7089227192084</ele>
        <time>2017-11-22T11:51:20.731000Z</time>
      </trkpt>
      <trkpt lat="45.685036182403564" lon="10.505354404449463">
        <ele>403.2934538296372</ele>
        <time>2017-11-22T11:51:21.234000Z</time>
      </trkpt>
      <trkpt lat="45.68469285964966" lon="10.505719184875488">
        <ele>400.0</ele>
        <time>2017-11-22T11:51:21.919000Z</time>
      </trkpt>
      <trkpt lat="45.68444788060076" lon="10.505905415772972">
        <ele>390.3311655921198</ele>
        <time>2017-11-22T11:51:22.364000Z</time>
      </trkpt>
      <trkpt lat="45.68432061932981" lon="10.50600215792656">
        <ele>388.77160677617957</ele>
        <time>2017-11-22T11:51:22.595000Z</time>
      </trkpt>
      <trkpt lat="45.68432045169175" lon="10.506002241745591">
        <ele>388.769684894529</ele>
        <time>2017-11-22T11:51:22.595000Z</time>
      </trkpt>
      <trkpt lat="45.68415641784668" lon="10.506126880645752">
        <ele>386.0930212383917</ele>
        <time>2017-11-22T11:51:22.893000Z</time>
      </trkpt>
      <trkpt lat="45.68377026356757" lon="10.506319999694824">
        <ele>381.6658598272309</ele>
        <time>2017-11-22T11:51:23.549000Z</time>
      </trkpt>
      <trkpt lat="45.68331956863403" lon="10.506298542022705">
        <ele>381.3617159331374</ele>
        <time>2017-11-22T11:51:24.272000Z</time>
      </trkpt>
      <trkpt lat="45.68276175297797" lon="10.50616979598999">
        <ele>380.98063236988554</ele>
        <time>2017-11-22T11:51:25.178000Z</time>
      </trkpt>
      <trkpt lat="45.682268142700195" lon="10.505483150482178">
        <ele>387.23440241804263</ele>
        <time>2017-11-22T11:51:26.281000Z</time>
      </trkpt>
      <trkpt lat="45.68207502365112" lon="10.505504608154297">
        <ele>385.5559375616111</ele>
        <time>2017-11-22T11:51:26.592000Z</time>
      </trkpt>
      <trkpt lat="45.68177470006049" lon="10.505740642547607">
        <ele>382.5870517041885</ele>
        <time>2017-11-22T11:51:27.141000Z</time>
      </trkpt>
      <trkpt lat="45.681259632110596" lon="10.505869388580322">
        <ele>370.0562990795304</ele>
        <time>2017-11-22T11:51:27.979000Z</time>
      </trkpt>
      <trkpt lat="45.681088054552674" lon="10.505976676940918">
        <ele>369.896738237389</ele>
        <time>2017-11-22T11:51:28.279000Z</time>
      </trkpt>
      <trkpt lat="45.68063735961914" lon="10.506126880645752">
        <ele>369.83572015802724</ele>
        <time>2017-11-22T11:51:29.021000Z</time>
      </trkpt>
      <trkpt lat="45.680036544799805" lon="10.505847930908203">
        <ele>368.9617283651958</ele>
        <time>2017-11-22T11:51:30.034000Z</time>
      </trkpt>
      <trkpt lat="45.67971467971802" lon="10.505805015563965">
        <ele>369.99193734032525</ele>
        <time>2017-11-22T11:51:30.552000Z</time>
      </trkpt>
      <trkpt lat="45.678770542144775" lon="10.505075454711914">
        <ele>360.0</ele>
        <time>2017-11-22T11:51:32.272000Z</time>
      </trkpt>
      <trkpt lat="45.678687151448784" lon="10.504622110137738">
        <ele>368.17118259852367</ele>
        <time>2017-11-22T11:51:32.797000Z</time>
      </trkpt>
      <trkpt lat="45.67865068092942" lon="10.504423845559359">
        <ele>370.57851799515896</ele>
        <time>2017-11-22T11:51:33.027000Z</time>
      </trkpt>
      <trkpt lat="45.67865068092942" lon="10.504423761740327">
        <ele>370.5795021899018</ele>
        <time>2017-11-22T11:51:33.027000Z</time>
      </trkpt>
      <trkpt lat="45.67842721939087" lon="10.503208637237549">
        <ele>405.3333333333333</ele>
        <time>2017-11-22T11:51:34.434000Z</time>
      </trkpt>
      <trkpt lat="45.67838430404663" lon="10.503058433532715">
        <ele>403.3962005352667</ele>
        <time>2017-11-22T11:51:34.616000Z</time>
      </trkpt>
      <trkpt lat="45.67821264266968" lon="10.503079891204834">
        <ele>385.78550183148394</ele>
        <time>2017-11-22T11:51:34.892000Z</time>
      </trkpt>
      <trkpt lat="45.67821272648871" lon="10.503079891204834">
        <ele>385.7840697670469</ele>
        <time>2017-11-22T11:51:34.892000Z</time>
      </trkpt>
      <trkpt lat="45.67718267440796" lon="10.502865314483643">
        <ele>360.0</ele>
        <time>2017-11-22T11:51:36.561000Z</time>
      </trkpt>
      <trkpt lat="45.67641019821167" lon="10.502350330352783">
        <ele>371.5157767549891</ele>
        <time>2017-11-22T11:51:37.927000Z</time>
      </trkpt>
      <trkpt lat="45.67600258626044" lon="10.502007007598877">
        <ele>370.6221162706279</ele>
        <time>2017-11-22T11:51:38.685000Z</time>
      </trkpt>
      <trkpt lat="45.67542314529419" lon="10.501492023468018">
        <ele>366.0</ele>
        <time>2017-11-22T11:51:39.778000Z</time>
      </trkpt>
      <trkpt lat="45.674500465393066" lon="10.500333309173584">
        <ele>365.48122787176743</ele>
        <time>2017-11-22T11:51:41.746000Z</time>
      </trkpt>
      <trkpt lat="45.67422151565552" lon="10.500226020812988">
        <ele>363.41517633601615</ele>
        <time>2017-11-22T11:51:42.209000Z</time>
      </trkpt>
      <trkpt lat="45.674071395769715" lon="10.500376224517822">
        <ele>355.1050112755265</ele>
        <time>2017-11-22T11:51:42.503000Z</time>
      </trkpt>
      <trkpt lat="45.67392110824585" lon="10.500526428222656">
        <ele>354.12617723085185</ele>
        <time>2017-11-22T11:51:42.797000Z</time>
      </trkpt>
      <trkpt lat="45.673813819885254" lon="10.500547885894775">
        <ele>353.5477059592825</ele>
        <time>2017-11-22T11:51:42.971000Z</time>
      </trkpt>
      <trkpt lat="45.67359924316406" lon="10.50041913986206">
        <ele>352.3052737822659</ele>
        <time>2017-11-22T11:51:43.344000Z</time>
      </trkpt>
      <trkpt lat="45.673062801361084" lon="10.499217510223389">
        <ele>345.9847968248951</ele>
        <time>2017-11-22T11:51:44.941000Z</time>
      </trkpt>
      <trkpt lat="45.67289113998413" lon="10.499067306518555">
        <ele>356.8896077547593</ele>
        <time>2017-11-22T11:51:45.264000Z</time>
      </trkpt>
      <trkpt lat="45.67259073257446" lon="10.498981475830078">
        <ele>361.3122079639118</ele>
        <time>2017-11-22T11:51:45.755000Z</time>
      </trkpt>
      <trkpt lat="45.67239761352539" lon="10.498788356781006">
        <ele>348.93828437442335</ele>
        <time>2017-11-22T11:51:46.133000Z</time>
      </trkpt>
      <trkpt lat="45.672360261440076" lon="10.4987243175591">
        <ele>348.3293868806877</ele>
        <time>2017-11-22T11:51:46.226000Z</time>
      </trkpt>
      <trkpt lat="45.672267861664295" lon="10.498565901070833">
        <ele>346.8231278823254</ele>
        <time>2017-11-22T11:51:46.457000Z</time>
      </trkpt>
      <trkpt lat="45.67226777784526" lon="10.498565817251801">
        <ele>346.8220597052544</ele>
        <time>2017-11-22T11:51:46.458000Z</time>
      </trkpt>
      <trkpt lat="45.67209720611572" lon="10.498273372650146">
        <ele>346.3747787503551</ele>
        <time>2017-11-22T11:51:46.885000Z</time>
      </trkpt>
      <trkpt lat="45.67194708622992" lon="10.497887134552002">
        <ele>343.14865627099834</ele>
        <time>2017-11-22T11:51:47.380000Z</time>
      </trkpt>
      <trkpt lat="45.671753883361816" lon="10.497758388519287">
        <ele>340.9223369350753</ele>
        <time>2017-11-22T11:51:47.722000Z</time>
      </trkpt>
      <trkpt lat="45.67160367965698" lon="10.497329235076904">
        <ele>331.41874052159716</ele>
        <time>2017-11-22T11:51:48.260000Z</time>
      </trkpt>
      <trkpt lat="45.67138910293579" lon="10.497071743011475">
        <ele>330.269844671993</ele>
        <time>2017-11-22T11:51:48.709000Z</time>
      </trkpt>
      <trkpt lat="45.670852744951844" lon="10.496857166290283">
        <ele>327.98493564292704</ele>
        <time>2017-11-22T11:51:49.602000Z</time>
      </trkpt>
      <trkpt lat="45.67072399891913" lon="10.496814250946045">
        <ele>325.098017312198</ele>
        <time>2017-11-22T11:51:49.814000Z</time>
      </trkpt>
      <trkpt lat="45.67012310028076" lon="10.496556758880615">
        <ele>326.8167070226571</ele>
        <time>2017-11-22T11:51:50.820000Z</time>
      </trkpt>
      <trkpt lat="45.669758319854736" lon="10.496578216552734">
        <ele>326.8769245458682</ele>
        <time>2017-11-22T11:51:51.405000Z</time>
      </trkpt>
      <trkpt lat="45.66969394683838" lon="10.496814250946045">
        <ele>321.7544936717264</ele>
        <time>2017-11-22T11:51:51.689000Z</time>
      </trkpt>
      <trkpt lat="45.66969394683838" lon="10.497543811798096">
        <ele>319.4421736550042</ele>
        <time>2017-11-22T11:51:52.506000Z</time>
      </trkpt>
      <trkpt lat="45.66962957382202" lon="10.497887134552002">
        <ele>318.7598498922755</ele>
        <time>2017-11-22T11:51:52.904000Z</time>
      </trkpt>
      <trkpt lat="45.669543743133545" lon="10.497994422912598">
        <ele>318.6496700564281</ele>
        <time>2017-11-22T11:51:53.087000Z</time>
      </trkpt>
      <trkpt lat="45.66935062408447" lon="10.498101711273193">
        <ele>318.4493873772254</ele>
        <time>2017-11-22T11:51:53.419000Z</time>
      </trkpt>
      <trkpt lat="45.66920042037964" lon="10.498101711273193">
        <ele>318.3041712287141</ele>
        <time>2017-11-22T11:51:53.660000Z</time>
      </trkpt>
      <trkpt lat="45.66862106323242" lon="10.497651100158691">
        <ele>316.3333333333333</ele>
        <time>2017-11-22T11:51:54.717000Z</time>
      </trkpt>
      <trkpt lat="45.6682562828064" lon="10.49745798110962">
        <ele>325.3475162758239</ele>
        <time>2017-11-22T11:51:55.341000Z</time>
      </trkpt>
      <trkpt lat="45.66802987560823" lon="10.497495715663735">
        <ele>325.74652312939105</ele>
        <time>2017-11-22T11:51:55.706000Z</time>
      </trkpt>
      <trkpt lat="45.66799879074097" lon="10.497500896453857">
        <ele>318.8013052851833</ele>
        <time>2017-11-22T11:51:55.756000Z</time>
      </trkpt>
      <trkpt lat="45.66789787262678" lon="10.497575243934989">
        <ele>319.0</ele>
        <time>2017-11-22T11:51:55.938000Z</time>
      </trkpt>
      <trkpt lat="45.6675910949707" lon="10.497801303863525">
        <ele>318.5011818202175</ele>
        <time>2017-11-22T11:51:56.491000Z</time>
      </trkpt>
      <trkpt lat="45.66737651824951" lon="10.498058795928955">
        <ele>317.6277965723503</ele>
        <time>2017-11-22T11:51:56.940000Z</time>
      </trkpt>
      <trkpt lat="45.6671404838562" lon="10.49816608428955">
        <ele>316.85540760021405</ele>
        <time>2017-11-22T11:51:57.337000Z</time>
      </trkpt>
      <trkpt lat="45.66548824310303" lon="10.497887134552002">
        <ele>308.0</ele>
        <time>2017-11-22T11:52:00.004000Z</time>
      </trkpt>
      <trkpt lat="45.665295124053955" lon="10.497994422912598">
        <ele>308.2818483182667</ele>
        <time>2017-11-22T11:52:00.336000Z</time>
      </trkpt>
      <trkpt lat="45.66516637802124" lon="10.498123168945312">
        <ele>308.78426188160756</ele>
        <time>2017-11-22T11:52:00.588000Z</time>
      </trkpt>
      <trkpt lat="45.665016174316406" lon="10.49868106842041">
        <ele>317.12073315194243</ele>
        <time>2017-11-22T11:52:01.258000Z</time>
      </trkpt>
      <trkpt lat="45.664866054430604" lon="10.498766899108887">
        <ele>312.6378294751177</ele>
        <time>2017-11-22T11:52:01.517000Z</time>
      </trkpt>
      <trkpt lat="45.664522647857666" lon="10.498874187469482">
        <ele>313.76215002531825</ele>
        <time>2017-11-22T11:52:02.081000Z</time>
      </trkpt>
      <trkpt lat="45.664500527503705" lon="10.498888580805252">
        <ele>313.71980187516357</ele>
        <time>2017-11-22T11:52:02.120000Z</time>
      </trkpt>
      <trkpt lat="45.66436883993447" lon="10.49897426739335">
        <ele>313.46769359885633</ele>
        <time>2017-11-22T11:52:02.352000Z</time>
      </trkpt>
      <trkpt lat="45.664368672296405" lon="10.498974351212382">
        <ele>313.46738413049826</ele>
        <time>2017-11-22T11:52:02.352000Z</time>
      </trkpt>
      <trkpt lat="45.66409349441528" lon="10.499153137207031">
        <ele>309.60737265577444</ele>
        <time>2017-11-22T11:52:02.836000Z</time>
      </trkpt>
      <trkpt lat="45.6636643409729" lon="10.499281883239746">
        <ele>313.1765505564362</ele>
        <time>2017-11-22T11:52:03.539000Z</time>
      </trkpt>
      <trkpt lat="45.66340684890747" lon="10.49917459487915">
        <ele>311.762659340086</ele>
        <time>2017-11-22T11:52:03.969000Z</time>
      </trkpt>
      <trkpt lat="45.66323518753052" lon="10.498981475830078">
        <ele>305.27809712833397</ele>
        <time>2017-11-22T11:52:04.319000Z</time>
      </trkpt>
      <trkpt lat="45.66261291503906" lon="10.498809814453125">
        <ele>303.4008976381744</ele>
        <time>2017-11-22T11:52:05.335000Z</time>
      </trkpt>
      <trkpt lat="45.66199064254761" lon="10.49870252609253">
        <ele>300.5443088706998</ele>
        <time>2017-11-22T11:52:06.340000Z</time>
      </trkpt>
      <trkpt lat="45.66100358963013" lon="10.498337745666504">
        <ele>298.1064451922132</ele>
        <time>2017-11-22T11:52:07.974000Z</time>
      </trkpt>
      <trkpt lat="45.660810470581055" lon="10.498359203338623">
        <ele>296.56257521892877</ele>
        <time>2017-11-22T11:52:08.285000Z</time>
      </trkpt>
      <trkpt lat="45.66038131713867" lon="10.498595237731934">
        <ele>294.649985548252</ele>
        <time>2017-11-22T11:52:09.022000Z</time>
      </trkpt>
      <trkpt lat="45.659823417663574" lon="10.498530864715576">
        <ele>289.3216447338517</ele>
        <time>2017-11-22T11:52:09.919000Z</time>
      </trkpt>
      <trkpt lat="45.65926551818848" lon="10.498552322387695">
        <ele>287.0</ele>
        <time>2017-11-22T11:52:10.814000Z</time>
      </trkpt>
      <trkpt lat="45.65898656845093" lon="10.498466491699219">
        <ele>286.1562318956526</ele>
        <time>2017-11-22T11:52:11.271000Z</time>
      </trkpt>
      <trkpt lat="45.65842866897583" lon="10.498037338256836">
        <ele>282.2830872304434</ele>
        <time>2017-11-22T11:52:12.286000Z</time>
      </trkpt>
      <trkpt lat="45.6581711769104" lon="10.49795150756836">
        <ele>282.93935765755515</ele>
        <time>2017-11-22T11:52:12.710000Z</time>
      </trkpt>
      <trkpt lat="45.65765619277954" lon="10.498101711273193">
        <ele>282.91869115079754</ele>
        <time>2017-11-22T11:52:13.553000Z</time>
      </trkpt>
      <trkpt lat="45.65737724304199" lon="10.498380661010742">
        <ele>283.1957193791737</ele>
        <time>2017-11-22T11:52:14.099000Z</time>
      </trkpt>
      <trkpt lat="45.6571626663208" lon="10.4984450340271">
        <ele>283.1594475177908</ele>
        <time>2017-11-22T11:52:14.450000Z</time>
      </trkpt>
      <trkpt lat="45.656046867370605" lon="10.498380661010742">
        <ele>276.8138941003963</ele>
        <time>2017-11-22T11:52:16.240000Z</time>
      </trkpt>
      <trkpt lat="45.655810832977295" lon="10.498509407043457">
        <ele>276.77191042475937</ele>
        <time>2017-11-22T11:52:16.645000Z</time>
      </trkpt>
      <trkpt lat="45.65516710281372" lon="10.498573780059814">
        <ele>276.66466046791805</ele>
        <time>2017-11-22T11:52:17.680000Z</time>
      </trkpt>
      <trkpt lat="45.65516718663275" lon="10.498573780059814">
        <ele>276.66467630674725</ele>
        <time>2017-11-22T11:52:17.680000Z</time>
      </trkpt>
      <trkpt lat="45.65471649169922" lon="10.498509407043457">
        <ele>277.7502650421346</ele>
        <time>2017-11-22T11:52:18.406000Z</time>
      </trkpt>
      <trkpt lat="45.654287338256836" lon="10.498337745666504">
        <ele>277.2712949923038</ele>
        <time>2017-11-22T11:52:19.120000Z</time>
      </trkpt>
      <trkpt lat="45.653793811798096" lon="10.498251914978027">
        <ele>280.40358505402247</ele>
        <time>2017-11-22T11:52:19.917000Z</time>
      </trkpt>
      <trkpt lat="45.65347194671631" lon="10.498359203338623">
        <ele>275.7150254788157</ele>
        <time>2017-11-22T11:52:20.447000Z</time>
      </trkpt>
      <trkpt lat="45.652828216552734" lon="10.498723983764648">
        <ele>272.33907584316324</ele>
        <time>2017-11-22T11:52:21.557000Z</time>
      </trkpt>
      <trkpt lat="45.65276185889775" lon="10.498787896047311">
        <ele>271.96931334117903</ele>
        <time>2017-11-22T11:52:21.685000Z</time>
      </trkpt>
      <trkpt lat="45.65264171920717" lon="10.498903607949615">
        <ele>271.29986343826835</ele>
        <time>2017-11-22T11:52:21.917000Z</time>
      </trkpt>
      <trkpt lat="45.65224885940552" lon="10.499281883239746">
        <ele>268.11093307213537</ele>
        <time>2017-11-22T11:52:22.676000Z</time>
      </trkpt>
      <trkpt lat="45.65192699432373" lon="10.49943208694458">
        <ele>266.09619383094486</ele>
        <time>2017-11-22T11:52:23.219000Z</time>
      </trkpt>
      <trkpt lat="45.65063953399658" lon="10.499732494354248">
        <ele>253.0</ele>
        <time>2017-11-22T11:52:25.310000Z</time>
      </trkpt>
      <trkpt lat="45.650060176849365" lon="10.500032901763916">
        <ele>253.24457967845242</ele>
        <time>2017-11-22T11:52:26.298000Z</time>
      </trkpt>
      <trkpt lat="45.64797886647284" lon="10.501749515533447">
        <ele>245.0</ele>
        <time>2017-11-22T11:52:30.150000Z</time>
      </trkpt>
      <trkpt lat="45.647034645080566" lon="10.502543449401855">
        <ele>243.0</ele>
        <time>2017-11-22T11:52:31.906000Z</time>
      </trkpt>
      <trkpt lat="45.6470347288996" lon="10.502543449401855">
        <ele>243.00009970293738</ele>
        <time>2017-11-22T11:52:31.907000Z</time>
      </trkpt>
      <trkpt lat="45.646348083391786" lon="10.502972602844238">
        <ele>243.22475926826397</ele>
        <time>2017-11-22T11:52:33.108000Z</time>
      </trkpt>
      <trkpt lat="45.6461763381958" lon="10.503058433532715">
        <ele>243.89664081981198</ele>
        <time>2017-11-22T11:52:33.400000Z</time>
      </trkpt>
      <trkpt lat="45.6461763381958" lon="10.5029296875">
        <ele>244.2290439070462</ele>
        <time>2017-11-22T11:52:33.544000Z</time>
      </trkpt>
      <trkpt lat="45.64617642201483" lon="10.502779483795166">
        <ele>244.61684763178928</ele>
        <time>2017-11-22T11:52:33.712000Z</time>
      </trkpt>
      <trkpt lat="45.64617642201483" lon="10.502650737762451">
        <ele>244.94925071852617</ele>
        <time>2017-11-22T11:52:33.856000Z</time>
      </trkpt>
      <trkpt lat="45.64617642201483" lon="10.501985549926758">
        <ele>249.0</ele>
        <time>2017-11-22T11:52:34.601000Z</time>
      </trkpt>
      <trkpt lat="45.646090507507324" lon="10.50018310546875">
        <ele>254.58537080391133</ele>
        <time>2017-11-22T11:52:36.626000Z</time>
      </trkpt>
      <trkpt lat="45.646090591326356" lon="10.50018310546875">
        <ele>254.585306848453</ele>
        <time>2017-11-22T11:52:36.626000Z</time>
      </trkpt>
      <trkpt lat="45.64602613449097" lon="10.499517917633057">
        <ele>251.89375813812956</ele>
        <time>2017-11-22T11:52:37.379000Z</time>
      </trkpt>
      <trkpt lat="45.646090507507324" lon="10.49917459487915">
        <ele>251.70415138381554</ele>
        <time>2017-11-22T11:52:37.777000Z</time>
      </trkpt>
      <trkpt lat="45.64666994847357" lon="10.49741506576538">
        <ele>251.0</ele>
        <time>2017-11-22T11:52:39.957000Z</time>
      </trkpt>
      <trkpt lat="45.64673432148993" lon="10.497329235076904">
        <ele>251.12266628364372</ele>
        <time>2017-11-22T11:52:40.098000Z</time>
      </trkpt>
      <trkpt lat="45.647893035784364" lon="10.495312213897705">
        <ele>255.0</ele>
        <time>2017-11-22T11:52:43.024000Z</time>
      </trkpt>
      <trkpt lat="45.648144024982166" lon="10.49484596176585">
        <ele>248.33333333333334</ele>
        <time>2017-11-22T11:52:43.683000Z</time>
      </trkpt>
      <trkpt lat="45.648193359375" lon="10.494754314422607">
        <ele>248.66043287728107</ele>
        <time>2017-11-22T11:52:43.813000Z</time>
      </trkpt>
      <trkpt lat="45.64819344319403" lon="10.494754314422607">
        <ele>248.66077194305635</ele>
        <time>2017-11-22T11:52:43.813000Z</time>
      </trkpt>
      <trkpt lat="45.64823493361473" lon="10.49468600191176">
        <ele>248.9166763667569</ele>
        <time>2017-11-22T11:52:43.914000Z</time>
      </trkpt>
      <trkpt lat="45.648235101252794" lon="10.494685834273696">
        <ele>248.9175037670442</ele>
        <time>2017-11-22T11:52:43.914000Z</time>
      </trkpt>
      <trkpt lat="45.64849376678467" lon="10.494260787963867">
        <ele>258.17777559098704</ele>
        <time>2017-11-22T11:52:44.546000Z</time>
      </trkpt>
      <trkpt lat="45.64862251281738" lon="10.493896007537842">
        <ele>255.0</ele>
        <time>2017-11-22T11:52:45.004000Z</time>
      </trkpt>
      <trkpt lat="45.649352073669434" lon="10.491406917572021">
        <ele>269.93118422285335</ele>
        <time>2017-11-22T11:52:48.029000Z</time>
      </trkpt>
      <trkpt lat="45.64950227737427" lon="10.490634441375732">
        <ele>269.0</ele>
        <time>2017-11-22T11:52:48.928000Z</time>
      </trkpt>
      <trkpt lat="45.64963102340698" lon="10.48945426940918">
        <ele>267.18882375111315</ele>
        <time>2017-11-22T11:52:50.267000Z</time>
      </trkpt>
      <trkpt lat="45.649802684783936" lon="10.487329959869385">
        <ele>267.0</ele>
        <time>2017-11-22T11:52:52.663000Z</time>
      </trkpt>
      <trkpt lat="45.649824142456055" lon="10.486664772033691">
        <ele>264.8229281955867</ele>
        <time>2017-11-22T11:52:53.409000Z</time>
      </trkpt>
      <trkpt lat="45.64973831176758" lon="10.485506057739258">
        <ele>261.74889145890626</ele>
        <time>2017-11-22T11:52:54.715000Z</time>
      </trkpt>
      <trkpt lat="45.64973839558661" lon="10.485506057739258">
        <ele>261.74857512418345</ele>
        <time>2017-11-22T11:52:54.715000Z</time>
      </trkpt>
      <trkpt lat="45.64973831176758" lon="10.48496961593628">
        <ele>258.0</ele>
        <time>2017-11-22T11:52:55.316000Z</time>
      </trkpt>
      <trkpt lat="45.649888599291444" lon="10.483832359313965">
        <ele>256.21349303489325</ele>
        <time>2017-11-22T11:52:56.613000Z</time>
      </trkpt>
      <trkpt lat="45.64995288848877" lon="10.483531951904297">
        <ele>256.0</ele>
        <time>2017-11-22T11:52:56.965000Z</time>
      </trkpt>
      <trkpt lat="45.6499529723078" lon="10.483531951904297">
        <ele>256.00003773109887</ele>
        <time>2017-11-22T11:52:56.965000Z</time>
      </trkpt>
      <trkpt lat="45.65001726150513" lon="10.483145713806152">
        <ele>260.4583074272596</ele>
        <time>2017-11-22T11:52:57.410000Z</time>
      </trkpt>
      <trkpt lat="45.65023192204535" lon="10.482244491577148">
        <ele>260.42457330973684</ele>
        <time>2017-11-22T11:52:58.477000Z</time>
      </trkpt>
      <trkpt lat="45.65074690617621" lon="10.480570793151855">
        <ele>258.0</ele>
        <time>2017-11-22T11:53:00.526000Z</time>
      </trkpt>
      <trkpt lat="45.651068687438965" lon="10.479412078857422">
        <ele>272.6666666666667</ele>
        <time>2017-11-22T11:53:01.923000Z</time>
      </trkpt>
      <trkpt lat="45.65135456365707" lon="10.47746854378012">
        <ele>258.0</ele>
        <time>2017-11-22T11:53:04.149000Z</time>
      </trkpt>
      <trkpt lat="45.65138367936015" lon="10.477270586416125">
        <ele>257.89788190488963</ele>
        <time>2017-11-22T11:53:04.376000Z</time>
      </trkpt>
      <trkpt lat="45.65138367936015" lon="10.47727033495903">
        <ele>257.8977549679218</ele>
        <time>2017-11-22T11:53:04.376000Z</time>
      </trkpt>
      <trkpt lat="45.65139055252075" lon="10.47722339630127">
        <ele>257.8735457816663</ele>
        <time>2017-11-22T11:53:04.430000Z</time>
      </trkpt>
      <trkpt lat="45.65136909484863" lon="10.476815700531006">
        <ele>257.6671560495035</ele>
        <time>2017-11-22T11:53:04.888000Z</time>
      </trkpt>
      <trkpt lat="45.65117597579956" lon="10.47621488571167">
        <ele>257.0</ele>
        <time>2017-11-22T11:53:05.629000Z</time>
      </trkpt>
      <trkpt lat="45.650832653045654" lon="10.475656986236572">
        <ele>255.13739276093887</ele>
        <time>2017-11-22T11:53:06.462000Z</time>
      </trkpt>
      <trkpt lat="45.65063953399658" lon="10.47522783279419">
        <ele>254.54506926095132</ele>
        <time>2017-11-22T11:53:07.034000Z</time>
      </trkpt>
      <trkpt lat="45.650618160143495" lon="10.475163459777832">
        <ele>254.50939483523462</ele>
        <time>2017-11-22T11:53:07.114000Z</time>
      </trkpt>
      <trkpt lat="45.65053232945502" lon="10.475077629089355">
        <ele>254.43440231340205</ele>
        <time>2017-11-22T11:53:07.282000Z</time>
      </trkpt>
      <trkpt lat="45.65048933029175" lon="10.475077629089355">
        <ele>254.40361020004502</ele>
        <time>2017-11-22T11:53:07.351000Z</time>
      </trkpt>
      <trkpt lat="45.65001726150513" lon="10.47473430633545">
        <ele>255.35771155566704</ele>
        <time>2017-11-22T11:53:08.200000Z</time>
      </trkpt>
      <trkpt lat="45.64911603927612" lon="10.474240779876709">
        <ele>253.0</ele>
        <time>2017-11-22T11:53:09.747000Z</time>
      </trkpt>
      <trkpt lat="45.64877271652222" lon="10.47396183013916">
        <ele>255.35691517472083</ele>
        <time>2017-11-22T11:53:10.380000Z</time>
      </trkpt>
      <trkpt lat="45.6480432394892" lon="10.473060607910156">
        <ele>256.0419439942254</ele>
        <time>2017-11-22T11:53:11.925000Z</time>
      </trkpt>
      <trkpt lat="45.64671277999878" lon="10.471279621124268">
        <ele>265.0</ele>
        <time>2017-11-22T11:53:14.846000Z</time>
      </trkpt>
      <trkpt lat="45.64617642201483" lon="10.470507144927979">
        <ele>266.0</ele>
        <time>2017-11-22T11:53:16.066000Z</time>
      </trkpt>
      <trkpt lat="45.643601417541504" lon="10.465679168701172">
        <ele>261.0</ele>
        <time>2017-11-22T11:53:22.872000Z</time>
      </trkpt>
      <trkpt lat="45.64340829849243" lon="10.464949607849121">
        <ele>263.0</ele>
        <time>2017-11-22T11:53:23.746000Z</time>
      </trkpt>
      <trkpt lat="45.64327955245972" lon="10.46422004699707">
        <ele>257.4075144088577</ele>
        <time>2017-11-22T11:53:24.589000Z</time>
      </trkpt>
      <trkpt lat="45.64340838231146" lon="10.46372652053833">
        <ele>263.892741845647</ele>
        <time>2017-11-22T11:53:25.179000Z</time>
      </trkpt>
      <trkpt lat="45.64347275532782" lon="10.463662147521973">
        <ele>263.8540477408347</ele>
        <time>2017-11-22T11:53:25.305000Z</time>
      </trkpt>
      <trkpt lat="45.64351567067206" lon="10.463404655456543">
        <ele>263.5493809823263</ele>
        <time>2017-11-22T11:53:25.602000Z</time>
      </trkpt>
      <trkpt lat="45.64340829849243" lon="10.46321153640747">
        <ele>263.9320567732248</ele>
        <time>2017-11-22T11:53:25.879000Z</time>
      </trkpt>
      <trkpt lat="45.64323663711548" lon="10.462868213653564">
        <ele>260.44624875042797</ele>
        <time>2017-11-22T11:53:26.352000Z</time>
      </trkpt>
      <trkpt lat="45.64327955245972" lon="10.461323261260986">
        <ele>259.0</ele>
        <time>2017-11-22T11:53:28.085000Z</time>
      </trkpt>
      <trkpt lat="45.64336538314819" lon="10.461044311523438">
        <ele>261.0348682320337</ele>
        <time>2017-11-22T11:53:28.427000Z</time>
      </trkpt>
      <trkpt lat="45.64340838231146" lon="10.4610013961792">
        <ele>261.12547387759895</ele>
        <time>2017-11-22T11:53:28.511000Z</time>
      </trkpt>
      <trkpt lat="45.64347267150879" lon="10.460872650146484">
        <ele>261.3166159642871</ele>
        <time>2017-11-22T11:53:28.688000Z</time>
      </trkpt>
      <trkpt lat="45.64349421299994" lon="10.46074390411377">
        <ele>260.80988282844646</ele>
        <time>2017-11-22T11:53:28.836000Z</time>
      </trkpt>
      <trkpt lat="45.64345121383667" lon="10.460615158081055">
        <ele>260.9822612779453</ele>
        <time>2017-11-22T11:53:28.996000Z</time>
      </trkpt>
      <trkpt lat="45.64345121383667" lon="10.460293292999268">
        <ele>261.37111431752817</ele>
        <time>2017-11-22T11:53:29.357000Z</time>
      </trkpt>
      <trkpt lat="45.64392328262329" lon="10.459692478179932">
        <ele>261.95243094449535</ele>
        <time>2017-11-22T11:53:30.370000Z</time>
      </trkpt>
      <trkpt lat="45.64435351327427" lon="10.45885070373517">
        <ele>265.10823048882617</ele>
        <time>2017-11-22T11:53:31.539000Z</time>
      </trkpt>
      <trkpt lat="45.64443860203028" lon="10.458684219047427">
        <ele>265.342499559757</ele>
        <time>2017-11-22T11:53:31.770000Z</time>
      </trkpt>
      <trkpt lat="45.64443868584931" lon="10.458684135228395">
        <ele>265.3426657377898</ele>
        <time>2017-11-22T11:53:31.770000Z</time>
      </trkpt>
      <trkpt lat="45.64540386199951" lon="10.456795692443848">
        <ele>269.0</ele>
        <time>2017-11-22T11:53:34.392000Z</time>
      </trkpt>
      <trkpt lat="45.64694881439209" lon="10.452182292938232">
        <ele>281.0</ele>
        <time>2017-11-22T11:53:40.125000Z</time>
      </trkpt>
      <trkpt lat="45.64744234085083" lon="10.450294017791748">
        <ele>271.0</ele>
        <time>2017-11-22T11:53:42.384000Z</time>
      </trkpt>
      <trkpt lat="45.647785663604736" lon="10.449371337890625">
        <ele>274.89066991789053</ele>
        <time>2017-11-22T11:53:43.555000Z</time>
      </trkpt>
      <trkpt lat="45.64793586730957" lon="10.449113845825195">
        <ele>260.0</ele>
        <time>2017-11-22T11:53:43.931000Z</time>
      </trkpt>
      <trkpt lat="45.648343563079834" lon="10.448770523071289">
        <ele>274.7179057201287</ele>
        <time>2017-11-22T11:53:44.689000Z</time>
      </trkpt>
      <trkpt lat="45.64862251281738" lon="10.448577404022217">
        <ele>275.1881707063523</ele>
        <time>2017-11-22T11:53:45.186000Z</time>
      </trkpt>
      <trkpt lat="45.6490384708517" lon="10.448399082956923">
        <ele>275.84710996416834</ele>
        <time>2017-11-22T11:53:45.882000Z</time>
      </trkpt>
      <trkpt lat="45.64917798154056" lon="10.448339274153113">
        <ele>285.0934828887337</ele>
        <time>2017-11-22T11:53:46.115000Z</time>
      </trkpt>
      <trkpt lat="45.64917806535959" lon="10.448339190334082">
        <ele>285.0934218254199</ele>
        <time>2017-11-22T11:53:46.115000Z</time>
      </trkpt>
      <trkpt lat="45.64937353134155" lon="10.44825553894043">
        <ele>269.97160059613685</ele>
        <time>2017-11-22T11:53:46.442000Z</time>
      </trkpt>
      <trkpt lat="45.64969539642334" lon="10.447998046875">
        <ele>269.75140825573504</ele>
        <time>2017-11-22T11:53:47.033000Z</time>
      </trkpt>
      <trkpt lat="45.65023183822632" lon="10.447354316711426">
        <ele>272.0</ele>
        <time>2017-11-22T11:53:48.156000Z</time>
      </trkpt>
      <trkpt lat="45.65051078796387" lon="10.446474552154541">
        <ele>271.0</ele>
        <time>2017-11-22T11:53:49.239000Z</time>
      </trkpt>
      <trkpt lat="45.65089702606201" lon="10.443470478057861">
        <ele>272.0</ele>
        <time>2017-11-22T11:53:52.662000Z</time>
      </trkpt>
      <trkpt lat="45.65089702606201" lon="10.44252634048462">
        <ele>272.6666666666667</ele>
        <time>2017-11-22T11:53:53.720000Z</time>
      </trkpt>
      <trkpt lat="45.650832653045654" lon="10.441560745239258">
        <ele>272.0</ele>
        <time>2017-11-22T11:53:54.807000Z</time>
      </trkpt>
      <trkpt lat="45.65025329589844" lon="10.4380202293396">
        <ele>277.0</ele>
        <time>2017-11-22T11:53:58.882000Z</time>
      </trkpt>
      <trkpt lat="45.65018892288208" lon="10.437419414520264">
        <ele>275.9305820879431</ele>
        <time>2017-11-22T11:53:59.563000Z</time>
      </trkpt>
      <trkpt lat="45.65018892288208" lon="10.43677568435669">
        <ele>275.50404399583357</ele>
        <time>2017-11-22T11:54:00.284000Z</time>
      </trkpt>
      <trkpt lat="45.65025329589844" lon="10.436239242553711">
        <ele>274.4853603366896</ele>
        <time>2017-11-22T11:54:00.894000Z</time>
      </trkpt>
      <trkpt lat="45.65040349960327" lon="10.435552597045898">
        <ele>271.80545837761076</ele>
        <time>2017-11-22T11:54:01.700000Z</time>
      </trkpt>
      <trkpt lat="45.6504035834223" lon="10.435552597045898">
        <ele>271.80532315888917</ele>
        <time>2017-11-22T11:54:01.700000Z</time>
      </trkpt>
      <trkpt lat="45.650832736864686" lon="10.43450117111206">
        <ele>268.7656410590409</ele>
        <time>2017-11-22T11:54:03.064000Z</time>
      </trkpt>
      <trkpt lat="45.65200109493382" lon="10.432151779332987">
        <ele>273.0</ele>
        <time>2017-11-22T11:54:06.295000Z</time>
      </trkpt>
      <trkpt lat="45.65208365209401" lon="10.431985761970282">
        <ele>273.0332720966867</ele>
        <time>2017-11-22T11:54:06.523000Z</time>
      </trkpt>
      <trkpt lat="45.65208373591304" lon="10.431985510513186">
        <ele>273.03336812993416</ele>
        <time>2017-11-22T11:54:06.523000Z</time>
      </trkpt>
      <trkpt lat="45.652828216552734" lon="10.430488586425781">
        <ele>274.0</ele>
        <time>2017-11-22T11:54:08.582000Z</time>
      </trkpt>
      <trkpt lat="45.65317153930664" lon="10.429844856262207">
        <ele>270.90175890534323</ele>
        <time>2017-11-22T11:54:09.489000Z</time>
      </trkpt>
      <trkpt lat="45.653836727142334" lon="10.42879343032837">
        <ele>269.3116321067923</ele>
        <time>2017-11-22T11:54:11.078000Z</time>
      </trkpt>
      <trkpt lat="45.654137134552" lon="10.42851448059082">
        <ele>274.1860232375422</ele>
        <time>2017-11-22T11:54:11.652000Z</time>
      </trkpt>
      <trkpt lat="45.654373252764344" lon="10.428450107574463">
        <ele>286.6061260317476</ele>
        <time>2017-11-22T11:54:12.037000Z</time>
      </trkpt>
      <trkpt lat="45.65441608428955" lon="10.428471565246582">
        <ele>286.48064105361857</ele>
        <time>2017-11-22T11:54:12.110000Z</time>
      </trkpt>
      <trkpt lat="45.65452337265015" lon="10.428493022918701">
        <ele>286.1810929548003</ele>
        <time>2017-11-22T11:54:12.284000Z</time>
      </trkpt>
      <trkpt lat="45.65465211868286" lon="10.428385734558105">
        <ele>285.7691073346696</ele>
        <time>2017-11-22T11:54:12.523000Z</time>
      </trkpt>
      <trkpt lat="45.6546950340271" lon="10.42827844619751">
        <ele>277.1968588577484</ele>
        <time>2017-11-22T11:54:12.662000Z</time>
      </trkpt>
      <trkpt lat="45.65475940704346" lon="10.428106784820557">
        <ele>276.82034798507226</ele>
        <time>2017-11-22T11:54:12.880000Z</time>
      </trkpt>
      <trkpt lat="45.65523147583008" lon="10.427570343017578">
        <ele>279.15337161309486</ele>
        <time>2017-11-22T11:54:13.846000Z</time>
      </trkpt>
      <trkpt lat="45.655810832977295" lon="10.427098274230957">
        <ele>274.64312236181513</ele>
        <time>2017-11-22T11:54:14.915000Z</time>
      </trkpt>
      <trkpt lat="45.65677651204169" lon="10.426089763641357">
        <ele>280.0</ele>
        <time>2017-11-22T11:54:16.832000Z</time>
      </trkpt>
      <trkpt lat="45.65709829330444" lon="10.425724983215332">
        <ele>274.79922525669434</ele>
        <time>2017-11-22T11:54:17.490000Z</time>
      </trkpt>
      <trkpt lat="45.657377326861024" lon="10.425124168395996">
        <ele>272.0964687625415</ele>
        <time>2017-11-22T11:54:18.298000Z</time>
      </trkpt>
      <trkpt lat="45.657461629058076" lon="10.424854401753084">
        <ele>272.98247209437926</ele>
        <time>2017-11-22T11:54:18.629000Z</time>
      </trkpt>
      <trkpt lat="45.65748461522162" lon="10.42478084564209">
        <ele>273.1845481974819</ele>
        <time>2017-11-22T11:54:18.719000Z</time>
      </trkpt>
      <trkpt lat="45.65750313922763" lon="10.42465670965612">
        <ele>273.8362283685924</ele>
        <time>2017-11-22T11:54:18.861000Z</time>
      </trkpt>
      <trkpt lat="45.65750322304666" lon="10.424656625837088">
        <ele>273.8365953137088</ele>
        <time>2017-11-22T11:54:18.861000Z</time>
      </trkpt>
      <trkpt lat="45.657548904418945" lon="10.424351692199707">
        <ele>274.6187309532477</ele>
        <time>2017-11-22T11:54:19.210000Z</time>
      </trkpt>
      <trkpt lat="45.65763473510742" lon="10.424115657806396">
        <ele>278.286022436452</ele>
        <time>2017-11-22T11:54:19.508000Z</time>
      </trkpt>
      <trkpt lat="45.657784938812256" lon="10.4240083694458">
        <ele>278.88842224766375</ele>
        <time>2017-11-22T11:54:19.777000Z</time>
      </trkpt>
      <trkpt lat="45.65793522633612" lon="10.423901081085205">
        <ele>279.4910908423987</ele>
        <time>2017-11-22T11:54:20.046000Z</time>
      </trkpt>
      <trkpt lat="45.65795668400824" lon="10.423643589019775">
        <ele>280.1414443570625</ele>
        <time>2017-11-22T11:54:20.337000Z</time>
      </trkpt>
      <trkpt lat="45.657806396484375" lon="10.423493385314941">
        <ele>280.1089249967317</ele>
        <time>2017-11-22T11:54:20.631000Z</time>
      </trkpt>
      <trkpt lat="45.65767765045166" lon="10.423085689544678">
        <ele>281.0534577438793</ele>
        <time>2017-11-22T11:54:21.132000Z</time>
      </trkpt>
      <trkpt lat="45.65767773427069" lon="10.422999858856201">
        <ele>281.04281615583994</ele>
        <time>2017-11-22T11:54:21.228000Z</time>
      </trkpt>
      <trkpt lat="45.65767773427069" lon="10.422742366790771">
        <ele>281.0108914228831</ele>
        <time>2017-11-22T11:54:21.517000Z</time>
      </trkpt>
      <trkpt lat="45.657527446746826" lon="10.419974327087402">
        <ele>278.0</ele>
        <time>2017-11-22T11:54:24.628000Z</time>
      </trkpt>
      <trkpt lat="45.65752753056586" lon="10.419416427612305">
        <ele>278.0</ele>
        <time>2017-11-22T11:54:25.253000Z</time>
      </trkpt>
      <trkpt lat="45.657570445910096" lon="10.419223308563232">
        <ele>278.082310797023</ele>
        <time>2017-11-22T11:54:25.480000Z</time>
      </trkpt>
      <trkpt lat="45.657570362091064" lon="10.419223308563232">
        <ele>278.08241142249625</ele>
        <time>2017-11-22T11:54:25.480000Z</time>
      </trkpt>
      <trkpt lat="45.6577205657959" lon="10.418901443481445">
        <ele>277.7404831044643</ele>
        <time>2017-11-22T11:54:25.914000Z</time>
      </trkpt>
      <trkpt lat="45.659331010166305" lon="10.417507751476528">
        <ele>282.0</ele>
        <time>2017-11-22T11:54:28.931000Z</time>
      </trkpt>
      <trkpt lat="45.65945561975241" lon="10.417399909347296">
        <ele>277.97377359209116</ele>
        <time>2017-11-22T11:54:29.164000Z</time>
      </trkpt>
      <trkpt lat="45.659455452114344" lon="10.417400160804391">
        <ele>277.9738209136996</ele>
        <time>2017-11-22T11:54:29.164000Z</time>
      </trkpt>
      <trkpt lat="45.65995216369629" lon="10.416970252990723">
        <ele>278.08692735314514</ele>
        <time>2017-11-22T11:54:30.095000Z</time>
      </trkpt>
      <trkpt lat="45.66237688064575" lon="10.414502620697021">
        <ele>280.0</ele>
        <time>2017-11-22T11:54:34.865000Z</time>
      </trkpt>
      <trkpt lat="45.66291340626776" lon="10.413966178894043">
        <ele>280.0</ele>
        <time>2017-11-22T11:54:35.914000Z</time>
      </trkpt>
      <trkpt lat="45.66478484875993" lon="10.412215458944212">
        <ele>277.0</ele>
        <time>2017-11-22T11:54:39.498000Z</time>
      </trkpt>
      <trkpt lat="45.664906706660986" lon="10.41210145689547">
        <ele>277.01780125559094</ele>
        <time>2017-11-22T11:54:39.731000Z</time>
      </trkpt>
      <trkpt lat="45.66490653902292" lon="10.412101624533534">
        <ele>277.01782626178925</ele>
        <time>2017-11-22T11:54:39.731000Z</time>
      </trkpt>
      <trkpt lat="45.66490888595581" lon="10.412099361419678">
        <ele>277.02899355132575</ele>
        <time>2017-11-22T11:54:39.736000Z</time>
      </trkpt>
      <trkpt lat="45.66544532775879" lon="10.411691665649414">
        <ele>281.759106325285</ele>
        <time>2017-11-22T11:54:40.710000Z</time>
      </trkpt>
      <trkpt lat="45.667312145233154" lon="10.41079044342041">
        <ele>278.0</ele>
        <time>2017-11-22T11:54:43.869000Z</time>
      </trkpt>
      <trkpt lat="45.66795587539673" lon="10.410382747650146">
        <ele>284.05868322285687</ele>
        <time>2017-11-22T11:54:44.998000Z</time>
      </trkpt>
      <trkpt lat="45.67014257837818" lon="10.409949414731395">
        <ele>287.0</ele>
        <time>2017-11-22T11:54:48.537000Z</time>
      </trkpt>
      <trkpt lat="45.67028897814453" lon="10.409920401871204">
        <ele>287.4485524652557</ele>
        <time>2017-11-22T11:54:48.774000Z</time>
      </trkpt>
      <trkpt lat="45.670288894325495" lon="10.409920401871204">
        <ele>287.44878556202804</ele>
        <time>2017-11-22T11:54:48.774000Z</time>
      </trkpt>
      <trkpt lat="45.67033767700195" lon="10.409910678863525">
        <ele>287.5857573558649</ele>
        <time>2017-11-22T11:54:48.853000Z</time>
      </trkpt>
      <trkpt lat="45.67059516906738" lon="10.409975051879883">
        <ele>288.31267528465486</ele>
        <time>2017-11-22T11:54:49.272000Z</time>
      </trkpt>
      <trkpt lat="45.67072399891913" lon="10.410103797912598">
        <ele>289.749655630743</ele>
        <time>2017-11-22T11:54:49.524000Z</time>
      </trkpt>
      <trkpt lat="45.67087420262396" lon="10.41006088256836">
        <ele>291.5089421505616</ele>
        <time>2017-11-22T11:54:49.770000Z</time>
      </trkpt>
      <trkpt lat="45.67093849182129" lon="10.409867763519287">
        <ele>288.5954522044129</ele>
        <time>2017-11-22T11:54:50.010000Z</time>
      </trkpt>
      <trkpt lat="45.67113161087036" lon="10.409696102142334">
        <ele>288.2200617502826</ele>
        <time>2017-11-22T11:54:50.374000Z</time>
      </trkpt>
      <trkpt lat="45.6727409362793" lon="10.409352779388428">
        <ele>285.2000046573194</ele>
        <time>2017-11-22T11:54:52.982000Z</time>
      </trkpt>
      <trkpt lat="45.67359924316406" lon="10.409395694732666">
        <ele>282.0</ele>
        <time>2017-11-22T11:54:54.359000Z</time>
      </trkpt>
      <trkpt lat="45.67538573677501" lon="10.410128991617372">
        <ele>285.0</ele>
        <time>2017-11-22T11:54:57.338000Z</time>
      </trkpt>
      <trkpt lat="45.67552733235061" lon="10.410187114030123">
        <ele>284.97638602440185</ele>
        <time>2017-11-22T11:54:57.574000Z</time>
      </trkpt>
      <trkpt lat="45.67552724853158" lon="10.410187030211091">
        <ele>284.9763519909138</ele>
        <time>2017-11-22T11:54:57.574000Z</time>
      </trkpt>
      <trkpt lat="45.67563772201538" lon="10.410232543945312">
        <ele>284.93808917569686</ele>
        <time>2017-11-22T11:54:57.758000Z</time>
      </trkpt>
      <trkpt lat="45.67741870880127" lon="10.409717559814453">
        <ele>284.0</ele>
        <time>2017-11-22T11:55:00.671000Z</time>
      </trkpt>
      <trkpt lat="45.67771920002997" lon="10.40980339050293">
        <ele>286.32146443392253</ele>
        <time>2017-11-22T11:55:01.162000Z</time>
      </trkpt>
      <trkpt lat="45.677826488390565" lon="10.409824848175049">
        <ele>286.50282341215757</ele>
        <time>2017-11-22T11:55:01.336000Z</time>
      </trkpt>
      <trkpt lat="45.67789077758789" lon="10.40980339050293">
        <ele>286.6133391787986</ele>
        <time>2017-11-22T11:55:01.442000Z</time>
      </trkpt>
      <trkpt lat="45.6782341003418" lon="10.409610271453857">
        <ele>287.2308986480435</ele>
        <time>2017-11-22T11:55:02.033000Z</time>
      </trkpt>
      <trkpt lat="45.67928561009467" lon="10.409460067749023">
        <ele>290.0</ele>
        <time>2017-11-22T11:55:03.727000Z</time>
      </trkpt>
      <trkpt lat="45.67986488342285" lon="10.409395694732666">
        <ele>290.814243740177</ele>
        <time>2017-11-22T11:55:04.658000Z</time>
      </trkpt>
      <trkpt lat="45.680251121520996" lon="10.409224033355713">
        <ele>292.38101745686515</ele>
        <time>2017-11-22T11:55:05.306000Z</time>
      </trkpt>
      <trkpt lat="45.680573070421815" lon="10.408923625946045">
        <ele>290.8629457763213</ele>
        <time>2017-11-22T11:55:05.922000Z</time>
      </trkpt>
      <trkpt lat="45.68057298660278" lon="10.408923625946045">
        <ele>290.8629781844729</ele>
        <time>2017-11-22T11:55:05.922000Z</time>
      </trkpt>
      <trkpt lat="45.681480855205294" lon="10.407764647665385">
        <ele>293.0</ele>
        <time>2017-11-22T11:55:07.872000Z</time>
      </trkpt>
      <trkpt lat="45.68158149719238" lon="10.407636165618896">
        <ele>293.72010108672174</ele>
        <time>2017-11-22T11:55:08.088000Z</time>
      </trkpt>
      <trkpt lat="45.68158870562911" lon="10.407624933868647">
        <ele>293.77699823647725</ele>
        <time>2017-11-22T11:55:08.105000Z</time>
      </trkpt>
      <trkpt lat="45.68158862181008" lon="10.407625017687678">
        <ele>293.7775442219049</ele>
        <time>2017-11-22T11:55:08.105000Z</time>
      </trkpt>
      <trkpt lat="45.68218239583075" lon="10.406692028045654">
        <ele>300.99380057926425</ele>
        <time>2017-11-22T11:55:09.519000Z</time>
      </trkpt>
      <trkpt lat="45.68265438079834" lon="10.404889583587646">
        <ele>312.0</ele>
        <time>2017-11-22T11:55:11.675000Z</time>
      </trkpt>
      <trkpt lat="45.68336248397827" lon="10.403623580932617">
        <ele>300.16030253906393</ele>
        <time>2017-11-22T11:55:13.491000Z</time>
      </trkpt>
      <trkpt lat="45.683748722076416" lon="10.403409004211426">
        <ele>298.84823397188626</ele>
        <time>2017-11-22T11:55:14.155000Z</time>
      </trkpt>
      <trkpt lat="45.68512201309204" lon="10.402979850769043">
        <ele>297.2354436364748</ele>
        <time>2017-11-22T11:55:16.408000Z</time>
      </trkpt>
      <trkpt lat="45.68542242050171" lon="10.402829647064209">
        <ele>297.13782381618665</ele>
        <time>2017-11-22T11:55:16.918000Z</time>
      </trkpt>
      <trkpt lat="45.68581089772284" lon="10.402506643677349">
        <ele>297.5376413869242</ele>
        <time>2017-11-22T11:55:17.638000Z</time>
      </trkpt>
      <trkpt lat="45.68593765608966" lon="10.402401247993112">
        <ele>296.62811494658007</ele>
        <time>2017-11-22T11:55:17.873000Z</time>
      </trkpt>
      <trkpt lat="45.6859374884516" lon="10.402401331812143">
        <ele>296.62822454031397</ele>
        <time>2017-11-22T11:55:17.873000Z</time>
      </trkpt>
      <trkpt lat="45.68758964538574" lon="10.401027202606201">
        <ele>301.80754600778516</ele>
        <time>2017-11-22T11:55:20.936000Z</time>
      </trkpt>
      <trkpt lat="45.68836212158203" lon="10.400640964508057">
        <ele>292.0</ele>
        <time>2017-11-22T11:55:22.248000Z</time>
      </trkpt>
      <trkpt lat="45.68844795227051" lon="10.400533676147461">
        <ele>292.33772520662785</ele>
        <time>2017-11-22T11:55:22.431000Z</time>
      </trkpt>
      <trkpt lat="45.68846949376166" lon="10.400362014770508">
        <ele>292.6988286674599</ele>
        <time>2017-11-22T11:55:22.626000Z</time>
      </trkpt>
      <trkpt lat="45.68843977962675" lon="10.400139592400782">
        <ele>293.1676863781</ele>
        <time>2017-11-22T11:55:22.880000Z</time>
      </trkpt>
      <trkpt lat="45.68842649459839" lon="10.40004014968872">
        <ele>293.37730788160087</ele>
        <time>2017-11-22T11:55:22.993000Z</time>
      </trkpt>
      <trkpt lat="45.688434122130275" lon="10.399932777509093">
        <ele>294.6007620900444</ele>
        <time>2017-11-22T11:55:23.114000Z</time>
      </trkpt>
      <trkpt lat="45.688434122130275" lon="10.399932945147157">
        <ele>294.60099743716273</ele>
        <time>2017-11-22T11:55:23.114000Z</time>
      </trkpt>
      <trkpt lat="45.68844795227051" lon="10.399739742279053">
        <ele>294.87365529964626</ele>
        <time>2017-11-22T11:55:23.332000Z</time>
      </trkpt>
      <trkpt lat="45.68859815597534" lon="10.399503707885742">
        <ele>295.3219044724398</ele>
        <time>2017-11-22T11:55:23.690000Z</time>
      </trkpt>
      <trkpt lat="45.68992853164673" lon="10.398516654968262">
        <ele>300.0</ele>
        <time>2017-11-22T11:55:26.092000Z</time>
      </trkpt>
      <trkpt lat="45.689963752846225" lon="10.39845499499751">
        <ele>299.97477697905805</ele>
        <time>2017-11-22T11:55:26.181000Z</time>
      </trkpt>
      <trkpt lat="45.69005660712719" lon="10.398292439058423">
        <ele>298.9082809825184</ele>
        <time>2017-11-22T11:55:26.416000Z</time>
      </trkpt>
      <trkpt lat="45.69005660712719" lon="10.398292522877455">
        <ele>298.9082544395689</ele>
        <time>2017-11-22T11:55:26.416000Z</time>
      </trkpt>
      <trkpt lat="45.69010019302368" lon="10.398216247558594">
        <ele>298.87704817662035</ele>
        <time>2017-11-22T11:55:26.526000Z</time>
      </trkpt>
      <trkpt lat="45.69022902287543" lon="10.397787094116211">
        <ele>298.72913086313633</ele>
        <time>2017-11-22T11:55:27.049000Z</time>
      </trkpt>
      <trkpt lat="45.69070109166205" lon="10.396735668182373">
        <ele>299.0</ele>
        <time>2017-11-22T11:55:28.449000Z</time>
      </trkpt>
      <trkpt lat="45.69143056869507" lon="10.39581298828125">
        <ele>299.0</ele>
        <time>2017-11-22T11:55:30.010000Z</time>
      </trkpt>
      <trkpt lat="45.691752433776855" lon="10.395212173461914">
        <ele>299.0</ele>
        <time>2017-11-22T11:55:30.858000Z</time>
      </trkpt>
      <trkpt lat="45.692546367645264" lon="10.392293930053711">
        <ele>299.0</ele>
        <time>2017-11-22T11:55:34.365000Z</time>
      </trkpt>
      <trkpt lat="45.6926965713501" lon="10.391929149627686">
        <ele>299.0</ele>
        <time>2017-11-22T11:55:34.839000Z</time>
      </trkpt>
      <trkpt lat="45.69291114807129" lon="10.391607284545898">
        <ele>306.0950530943839</ele>
        <time>2017-11-22T11:55:35.337000Z</time>
      </trkpt>
      <trkpt lat="45.69310426712036" lon="10.391414165496826">
        <ele>306.03217385510095</ele>
        <time>2017-11-22T11:55:35.715000Z</time>
      </trkpt>
      <trkpt lat="45.69340475834906" lon="10.391263961791992">
        <ele>303.9472157440761</ele>
        <time>2017-11-22T11:55:36.225000Z</time>
      </trkpt>
      <trkpt lat="45.69340467453003" lon="10.391263961791992">
        <ele>303.9471933704017</ele>
        <time>2017-11-22T11:55:36.225000Z</time>
      </trkpt>
      <trkpt lat="45.694026947021484" lon="10.390942096710205">
        <ele>303.7705816352272</ele>
        <time>2017-11-22T11:55:37.286000Z</time>
      </trkpt>
      <trkpt lat="45.694618376009124" lon="10.390555717508605">
        <ele>307.80315611724785</ele>
        <time>2017-11-22T11:55:38.328000Z</time>
      </trkpt>
      <trkpt lat="45.69475223310292" lon="10.390468267723918">
        <ele>308.077965335529</ele>
        <time>2017-11-22T11:55:38.564000Z</time>
      </trkpt>
      <trkpt lat="45.694752149283886" lon="10.39046835154295">
        <ele>308.07815629490904</ele>
        <time>2017-11-22T11:55:38.564000Z</time>
      </trkpt>
      <trkpt lat="45.69563627243042" lon="10.389890670776367">
        <ele>312.2266411187265</ele>
        <time>2017-11-22T11:55:40.122000Z</time>
      </trkpt>
      <trkpt lat="45.69683790206909" lon="10.388796329498291">
        <ele>305.0</ele>
        <time>2017-11-22T11:55:42.405000Z</time>
      </trkpt>
      <trkpt lat="45.69818981923163" lon="10.388453006744385">
        <ele>304.516545248235</ele>
        <time>2017-11-22T11:55:44.606000Z</time>
      </trkpt>
      <trkpt lat="45.69870471954346" lon="10.388345718383789">
        <ele>303.0</ele>
        <time>2017-11-22T11:55:45.440000Z</time>
      </trkpt>
      <trkpt lat="45.698726177215576" lon="10.388431549072266">
        <ele>303.08883277102683</ele>
        <time>2017-11-22T11:55:45.542000Z</time>
      </trkpt>
      <trkpt lat="45.69885492324829" lon="10.388474464416504">
        <ele>303.2732595093882</ele>
        <time>2017-11-22T11:55:45.754000Z</time>
      </trkpt>
      <trkpt lat="45.69891929626465" lon="10.388281345367432">
        <ele>304.1484404250489</ele>
        <time>2017-11-22T11:55:45.994000Z</time>
      </trkpt>
      <trkpt lat="45.70093640126288" lon="10.38780927658081">
        <ele>308.0</ele>
        <time>2017-11-22T11:55:49.271000Z</time>
      </trkpt>
      <trkpt lat="45.70136555470526" lon="10.387659072875977">
        <ele>308.23289800479904</ele>
        <time>2017-11-22T11:55:49.979000Z</time>
      </trkpt>
      <trkpt lat="45.70172664463154" lon="10.387407837879591">
        <ele>308.89376100352735</ele>
        <time>2017-11-22T11:55:50.623000Z</time>
      </trkpt>
      <trkpt lat="45.70185899734497" lon="10.38731575012207">
        <ele>309.0138128213426</ele>
        <time>2017-11-22T11:55:50.859000Z</time>
      </trkpt>
      <trkpt lat="45.70209511555731" lon="10.387122631072998">
        <ele>309.23565890775785</ele>
        <time>2017-11-22T11:55:51.295000Z</time>
      </trkpt>
      <trkpt lat="45.70215940475464" lon="10.387101173400879">
        <ele>309.2895147230909</ele>
        <time>2017-11-22T11:55:51.401000Z</time>
      </trkpt>
      <trkpt lat="45.70241689682007" lon="10.386993885040283">
        <ele>309.50830065832616</ele>
        <time>2017-11-22T11:55:51.831000Z</time>
      </trkpt>
      <trkpt lat="45.702717304229736" lon="10.386993885040283">
        <ele>310.7981450449581</ele>
        <time>2017-11-22T11:55:52.313000Z</time>
      </trkpt>
      <trkpt lat="45.702832881932835" lon="10.387080525913492">
        <ele>311.0</ele>
        <time>2017-11-22T11:55:52.522000Z</time>
      </trkpt>
    </trkseg>
  </trk>
</gpx>